<?xml version="1.0" encoding="UTF-8" standalone="no" ?>
<gpx xmlns="http://www.topografix.com/GPX/1/1" xmlns:xsi="http://www.w3.org/2001/XMLSchema-instance" xsi:schemaLocation="http://www.topografix.com/GPX/1/1 http://www.topografix.com/GPX/1/1/gpx.xsd" version="1.1" creator="VisuGPX - https://www.visugpx.com">
  <metadata>
    <name>Sainte Victoire </name>
    <desc><![CDATA[grp_trc:[nouvelles]]]></desc>
  </metadata>
  <trk>
    <name><![CDATA[17 juil. 2022 à 04:22:47]]></name>
    <cmt><![CDATA[17 juil. 2022 à 04:22:47]]></cmt>
    <trkseg>
      <trkpt lat="45.96331" lon="6.79568">
        <ele>1946</ele>
        <time>2022-07-17T02:22:48Z</time>
      </trkpt>
      <trkpt lat="45.96331" lon="6.79568">
        <ele>1946</ele>
        <time>2022-07-17T02:22:49Z</time>
      </trkpt>
      <trkpt lat="45.95792" lon="6.80055">
        <ele>2302</ele>
        <time>2022-07-17T03:33:48Z</time>
      </trkpt>
      <trkpt lat="45.95792" lon="6.80055">
        <ele>2302</ele>
        <time>2022-07-17T03:33:49Z</time>
      </trkpt>
      <trkpt lat="45.95792" lon="6.80055">
        <ele>2302</ele>
        <time>2022-07-17T03:33:57Z</time>
      </trkpt>
      <trkpt lat="45.95792" lon="6.80055">
        <ele>2302</ele>
        <time>2022-07-17T03:33:58Z</time>
      </trkpt>
      <trkpt lat="45.9579" lon="6.80053">
        <ele>2302</ele>
        <time>2022-07-17T03:36:27Z</time>
      </trkpt>
      <trkpt lat="45.95792" lon="6.80046">
        <ele>2301</ele>
        <time>2022-07-17T03:36:31Z</time>
      </trkpt>
      <trkpt lat="45.95796" lon="6.80051">
        <ele>2299</ele>
        <time>2022-07-17T03:36:40Z</time>
      </trkpt>
      <trkpt lat="45.95796" lon="6.80058">
        <ele>2299</ele>
        <time>2022-07-17T03:36:44Z</time>
      </trkpt>
      <trkpt lat="45.95797" lon="6.80071">
        <ele>2299</ele>
        <time>2022-07-17T03:36:55Z</time>
      </trkpt>
      <trkpt lat="45.95801" lon="6.80076">
        <ele>2298</ele>
        <time>2022-07-17T03:36:59Z</time>
      </trkpt>
      <trkpt lat="45.95804" lon="6.80083">
        <ele>2298</ele>
        <time>2022-07-17T03:37:06Z</time>
      </trkpt>
      <trkpt lat="45.95807" lon="6.80089">
        <ele>2298</ele>
        <time>2022-07-17T03:37:13Z</time>
      </trkpt>
      <trkpt lat="45.95813" lon="6.80092">
        <ele>2300</ele>
        <time>2022-07-17T03:37:23Z</time>
      </trkpt>
      <trkpt lat="45.95817" lon="6.80098">
        <ele>2302</ele>
        <time>2022-07-17T03:37:33Z</time>
      </trkpt>
      <trkpt lat="45.95824" lon="6.801">
        <ele>2304</ele>
        <time>2022-07-17T03:37:44Z</time>
      </trkpt>
      <trkpt lat="45.95829" lon="6.80104">
        <ele>2306</ele>
        <time>2022-07-17T03:37:55Z</time>
      </trkpt>
      <trkpt lat="45.95829" lon="6.80111">
        <ele>2308</ele>
        <time>2022-07-17T03:38:05Z</time>
      </trkpt>
      <trkpt lat="45.95827" lon="6.80108">
        <ele>2308</ele>
        <time>2022-07-17T03:41:39Z</time>
      </trkpt>
      <trkpt lat="45.95823" lon="6.80104">
        <ele>2306</ele>
        <time>2022-07-17T03:41:49Z</time>
      </trkpt>
      <trkpt lat="45.95813" lon="6.80093">
        <ele>2303</ele>
        <time>2022-07-17T03:42:10Z</time>
      </trkpt>
      <trkpt lat="45.95808" lon="6.80091">
        <ele>2302</ele>
        <time>2022-07-17T03:42:18Z</time>
      </trkpt>
      <trkpt lat="45.95799" lon="6.80075">
        <ele>2299</ele>
        <time>2022-07-17T03:42:35Z</time>
      </trkpt>
      <trkpt lat="45.95796" lon="6.8007">
        <ele>2299</ele>
        <time>2022-07-17T03:42:40Z</time>
      </trkpt>
      <trkpt lat="45.95795" lon="6.8006">
        <ele>2301</ele>
        <time>2022-07-17T03:42:51Z</time>
      </trkpt>
      <trkpt lat="45.95794" lon="6.80053">
        <ele>2301</ele>
        <time>2022-07-17T03:42:56Z</time>
      </trkpt>
      <trkpt lat="45.95794" lon="6.80046">
        <ele>2300</ele>
        <time>2022-07-17T03:43:01Z</time>
      </trkpt>
      <trkpt lat="45.95789" lon="6.80047">
        <ele>2302</ele>
        <time>2022-07-17T03:43:09Z</time>
      </trkpt>
      <trkpt lat="45.95784" lon="6.80051">
        <ele>2301</ele>
        <time>2022-07-17T03:43:19Z</time>
      </trkpt>
      <trkpt lat="45.95778" lon="6.80057">
        <ele>2300</ele>
        <time>2022-07-17T03:43:29Z</time>
      </trkpt>
      <trkpt lat="45.95778" lon="6.8006">
        <ele>2308</ele>
        <time>2022-07-17T04:16:57Z</time>
      </trkpt>
      <trkpt lat="45.95778" lon="6.80061">
        <ele>2308</ele>
        <time>2022-07-17T04:27:03Z</time>
      </trkpt>
      <trkpt lat="45.95782" lon="6.8006">
        <ele>2312</ele>
        <time>2022-07-17T04:33:22Z</time>
      </trkpt>
      <trkpt lat="45.95776" lon="6.80055">
        <ele>2310</ele>
        <time>2022-07-17T04:33:57Z</time>
      </trkpt>
      <trkpt lat="45.95776" lon="6.80048">
        <ele>2309</ele>
        <time>2022-07-17T04:34:03Z</time>
      </trkpt>
      <trkpt lat="45.95773" lon="6.80043">
        <ele>2308</ele>
        <time>2022-07-17T04:34:08Z</time>
      </trkpt>
      <trkpt lat="45.95769" lon="6.80036">
        <ele>2307</ele>
        <time>2022-07-17T04:34:17Z</time>
      </trkpt>
      <trkpt lat="45.95763" lon="6.80026">
        <ele>2305</ele>
        <time>2022-07-17T04:34:27Z</time>
      </trkpt>
      <trkpt lat="45.95758" lon="6.80022">
        <ele>2304</ele>
        <time>2022-07-17T04:34:31Z</time>
      </trkpt>
      <trkpt lat="45.95753" lon="6.80024">
        <ele>2304</ele>
        <time>2022-07-17T04:34:35Z</time>
      </trkpt>
      <trkpt lat="45.95746" lon="6.80022">
        <ele>2304</ele>
        <time>2022-07-17T04:34:45Z</time>
      </trkpt>
      <trkpt lat="45.95743" lon="6.80018">
        <ele>2304</ele>
        <time>2022-07-17T04:34:49Z</time>
      </trkpt>
      <trkpt lat="45.95738" lon="6.80016">
        <ele>2303</ele>
        <time>2022-07-17T04:34:56Z</time>
      </trkpt>
      <trkpt lat="45.95737" lon="6.8001">
        <ele>2302</ele>
        <time>2022-07-17T04:35:06Z</time>
      </trkpt>
      <trkpt lat="45.95741" lon="6.80002">
        <ele>2300</ele>
        <time>2022-07-17T04:35:16Z</time>
      </trkpt>
      <trkpt lat="45.9575" lon="6.79996">
        <ele>2299</ele>
        <time>2022-07-17T04:35:25Z</time>
      </trkpt>
      <trkpt lat="45.95768" lon="6.79977">
        <ele>2293</ele>
        <time>2022-07-17T04:35:51Z</time>
      </trkpt>
      <trkpt lat="45.9578" lon="6.79959">
        <ele>2289</ele>
        <time>2022-07-17T04:36:13Z</time>
      </trkpt>
      <trkpt lat="45.9577" lon="6.79948">
        <ele>2284</ele>
        <time>2022-07-17T04:36:34Z</time>
      </trkpt>
      <trkpt lat="45.95757" lon="6.79942">
        <ele>2278</ele>
        <time>2022-07-17T04:36:56Z</time>
      </trkpt>
      <trkpt lat="45.95753" lon="6.79939">
        <ele>2276</ele>
        <time>2022-07-17T04:37:06Z</time>
      </trkpt>
      <trkpt lat="45.95757" lon="6.79922">
        <ele>2270</ele>
        <time>2022-07-17T04:37:32Z</time>
      </trkpt>
      <trkpt lat="45.95746" lon="6.7992">
        <ele>2265</ele>
        <time>2022-07-17T04:38:07Z</time>
      </trkpt>
      <trkpt lat="45.9574" lon="6.7992">
        <ele>2262</ele>
        <time>2022-07-17T04:38:17Z</time>
      </trkpt>
      <trkpt lat="45.95729" lon="6.79918">
        <ele>2259</ele>
        <time>2022-07-17T04:38:30Z</time>
      </trkpt>
      <trkpt lat="45.95725" lon="6.7992">
        <ele>2258</ele>
        <time>2022-07-17T04:38:35Z</time>
      </trkpt>
      <trkpt lat="45.95721" lon="6.79921">
        <ele>2257</ele>
        <time>2022-07-17T04:38:40Z</time>
      </trkpt>
      <trkpt lat="45.95714" lon="6.79921">
        <ele>2254</ele>
        <time>2022-07-17T04:38:53Z</time>
      </trkpt>
      <trkpt lat="45.95712" lon="6.79914">
        <ele>2251</ele>
        <time>2022-07-17T04:39:05Z</time>
      </trkpt>
      <trkpt lat="45.95715" lon="6.79905">
        <ele>2250</ele>
        <time>2022-07-17T04:39:15Z</time>
      </trkpt>
      <trkpt lat="45.95714" lon="6.79894">
        <ele>2247</ele>
        <time>2022-07-17T04:39:25Z</time>
      </trkpt>
      <trkpt lat="45.95714" lon="6.79888">
        <ele>2246</ele>
        <time>2022-07-17T04:39:32Z</time>
      </trkpt>
      <trkpt lat="45.95713" lon="6.79881">
        <ele>2244</ele>
        <time>2022-07-17T04:39:42Z</time>
      </trkpt>
      <trkpt lat="45.95716" lon="6.79875">
        <ele>2243</ele>
        <time>2022-07-17T04:39:48Z</time>
      </trkpt>
      <trkpt lat="45.95718" lon="6.79865">
        <ele>2241</ele>
        <time>2022-07-17T04:39:58Z</time>
      </trkpt>
      <trkpt lat="45.95716" lon="6.79859">
        <ele>2240</ele>
        <time>2022-07-17T04:40:08Z</time>
      </trkpt>
      <trkpt lat="45.9571" lon="6.79864">
        <ele>2238</ele>
        <time>2022-07-17T04:40:18Z</time>
      </trkpt>
      <trkpt lat="45.95703" lon="6.79862">
        <ele>2236</ele>
        <time>2022-07-17T04:40:33Z</time>
      </trkpt>
      <trkpt lat="45.95693" lon="6.79871">
        <ele>2232</ele>
        <time>2022-07-17T04:40:53Z</time>
      </trkpt>
      <trkpt lat="45.95683" lon="6.7987">
        <ele>2230</ele>
        <time>2022-07-17T04:41:02Z</time>
      </trkpt>
      <trkpt lat="45.95677" lon="6.79865">
        <ele>2228</ele>
        <time>2022-07-17T04:41:15Z</time>
      </trkpt>
      <trkpt lat="45.95681" lon="6.79845">
        <ele>2223</ele>
        <time>2022-07-17T04:41:38Z</time>
      </trkpt>
      <trkpt lat="45.95682" lon="6.79838">
        <ele>2221</ele>
        <time>2022-07-17T04:41:48Z</time>
      </trkpt>
      <trkpt lat="45.95685" lon="6.79832">
        <ele>2219</ele>
        <time>2022-07-17T04:41:58Z</time>
      </trkpt>
      <trkpt lat="45.95693" lon="6.79826">
        <ele>2218</ele>
        <time>2022-07-17T04:42:07Z</time>
      </trkpt>
      <trkpt lat="45.95707" lon="6.79814">
        <ele>2213</ele>
        <time>2022-07-17T04:42:40Z</time>
      </trkpt>
      <trkpt lat="45.9572" lon="6.798">
        <ele>2209</ele>
        <time>2022-07-17T04:43:06Z</time>
      </trkpt>
      <trkpt lat="45.95724" lon="6.79798">
        <ele>2208</ele>
        <time>2022-07-17T04:43:10Z</time>
      </trkpt>
      <trkpt lat="45.95727" lon="6.79792">
        <ele>2207</ele>
        <time>2022-07-17T04:43:15Z</time>
      </trkpt>
      <trkpt lat="45.95735" lon="6.79793">
        <ele>2207</ele>
        <time>2022-07-17T04:43:24Z</time>
      </trkpt>
      <trkpt lat="45.9574" lon="6.79797">
        <ele>2207</ele>
        <time>2022-07-17T04:43:27Z</time>
      </trkpt>
      <trkpt lat="45.95743" lon="6.79799">
        <ele>2206</ele>
        <time>2022-07-17T04:43:31Z</time>
      </trkpt>
      <trkpt lat="45.95747" lon="6.79803">
        <ele>2207</ele>
        <time>2022-07-17T04:43:39Z</time>
      </trkpt>
      <trkpt lat="45.95758" lon="6.79805">
        <ele>2204</ele>
        <time>2022-07-17T04:43:49Z</time>
      </trkpt>
      <trkpt lat="45.9578" lon="6.79792">
        <ele>2201</ele>
        <time>2022-07-17T04:44:13Z</time>
      </trkpt>
      <trkpt lat="45.95785" lon="6.79789">
        <ele>2201</ele>
        <time>2022-07-17T04:44:17Z</time>
      </trkpt>
      <trkpt lat="45.95789" lon="6.79787">
        <ele>2201</ele>
        <time>2022-07-17T04:44:22Z</time>
      </trkpt>
      <trkpt lat="45.95793" lon="6.79786">
        <ele>2200</ele>
        <time>2022-07-17T04:44:26Z</time>
      </trkpt>
      <trkpt lat="45.958" lon="6.79785">
        <ele>2201</ele>
        <time>2022-07-17T04:44:33Z</time>
      </trkpt>
      <trkpt lat="45.95812" lon="6.79787">
        <ele>2200</ele>
        <time>2022-07-17T04:44:46Z</time>
      </trkpt>
      <trkpt lat="45.9582" lon="6.79785">
        <ele>2199</ele>
        <time>2022-07-17T04:44:54Z</time>
      </trkpt>
      <trkpt lat="45.95824" lon="6.79789">
        <ele>2198</ele>
        <time>2022-07-17T04:44:59Z</time>
      </trkpt>
      <trkpt lat="45.95829" lon="6.79789">
        <ele>2198</ele>
        <time>2022-07-17T04:45:04Z</time>
      </trkpt>
      <trkpt lat="45.95835" lon="6.79787">
        <ele>2197</ele>
        <time>2022-07-17T04:45:13Z</time>
      </trkpt>
      <trkpt lat="45.9584" lon="6.79788">
        <ele>2197</ele>
        <time>2022-07-17T04:45:18Z</time>
      </trkpt>
      <trkpt lat="45.95859" lon="6.79793">
        <ele>2192</ele>
        <time>2022-07-17T04:45:46Z</time>
      </trkpt>
      <trkpt lat="45.95864" lon="6.79791">
        <ele>2190</ele>
        <time>2022-07-17T04:45:51Z</time>
      </trkpt>
      <trkpt lat="45.95874" lon="6.79793">
        <ele>2189</ele>
        <time>2022-07-17T04:46:00Z</time>
      </trkpt>
      <trkpt lat="45.95884" lon="6.79794">
        <ele>2186</ele>
        <time>2022-07-17T04:46:11Z</time>
      </trkpt>
      <trkpt lat="45.95893" lon="6.79797">
        <ele>2185</ele>
        <time>2022-07-17T04:46:19Z</time>
      </trkpt>
      <trkpt lat="45.95898" lon="6.79804">
        <ele>2185</ele>
        <time>2022-07-17T04:46:27Z</time>
      </trkpt>
      <trkpt lat="45.95904" lon="6.79803">
        <ele>2184</ele>
        <time>2022-07-17T04:46:34Z</time>
      </trkpt>
      <trkpt lat="45.95908" lon="6.79806">
        <ele>2183</ele>
        <time>2022-07-17T04:46:39Z</time>
      </trkpt>
      <trkpt lat="45.9591" lon="6.79798">
        <ele>2182</ele>
        <time>2022-07-17T04:46:46Z</time>
      </trkpt>
      <trkpt lat="45.95912" lon="6.79792">
        <ele>2180</ele>
        <time>2022-07-17T04:46:59Z</time>
      </trkpt>
      <trkpt lat="45.95908" lon="6.79787">
        <ele>2180</ele>
        <time>2022-07-17T04:47:03Z</time>
      </trkpt>
      <trkpt lat="45.95903" lon="6.79784">
        <ele>2179</ele>
        <time>2022-07-17T04:47:10Z</time>
      </trkpt>
      <trkpt lat="45.959" lon="6.79779">
        <ele>2178</ele>
        <time>2022-07-17T04:47:14Z</time>
      </trkpt>
      <trkpt lat="45.95897" lon="6.7977">
        <ele>2177</ele>
        <time>2022-07-17T04:47:21Z</time>
      </trkpt>
      <trkpt lat="45.95893" lon="6.79764">
        <ele>2176</ele>
        <time>2022-07-17T04:47:27Z</time>
      </trkpt>
      <trkpt lat="45.95891" lon="6.79758">
        <ele>2175</ele>
        <time>2022-07-17T04:47:32Z</time>
      </trkpt>
      <trkpt lat="45.95889" lon="6.7975">
        <ele>2173</ele>
        <time>2022-07-17T04:47:44Z</time>
      </trkpt>
      <trkpt lat="45.95885" lon="6.79747">
        <ele>2172</ele>
        <time>2022-07-17T04:47:50Z</time>
      </trkpt>
      <trkpt lat="45.9588" lon="6.79745">
        <ele>2171</ele>
        <time>2022-07-17T04:47:55Z</time>
      </trkpt>
      <trkpt lat="45.95875" lon="6.79743">
        <ele>2171</ele>
        <time>2022-07-17T04:48:02Z</time>
      </trkpt>
      <trkpt lat="45.9587" lon="6.79733">
        <ele>2170</ele>
        <time>2022-07-17T04:48:10Z</time>
      </trkpt>
      <trkpt lat="45.95868" lon="6.79726">
        <ele>2170</ele>
        <time>2022-07-17T04:48:15Z</time>
      </trkpt>
      <trkpt lat="45.95866" lon="6.7972">
        <ele>2170</ele>
        <time>2022-07-17T04:48:19Z</time>
      </trkpt>
      <trkpt lat="45.95864" lon="6.79711">
        <ele>2170</ele>
        <time>2022-07-17T04:48:26Z</time>
      </trkpt>
      <trkpt lat="45.95862" lon="6.79705">
        <ele>2169</ele>
        <time>2022-07-17T04:48:31Z</time>
      </trkpt>
      <trkpt lat="45.9586" lon="6.79699">
        <ele>2170</ele>
        <time>2022-07-17T04:48:35Z</time>
      </trkpt>
      <trkpt lat="45.95862" lon="6.79688">
        <ele>2170</ele>
        <time>2022-07-17T04:48:42Z</time>
      </trkpt>
      <trkpt lat="45.9586" lon="6.79681">
        <ele>2170</ele>
        <time>2022-07-17T04:48:47Z</time>
      </trkpt>
      <trkpt lat="45.95858" lon="6.79675">
        <ele>2170</ele>
        <time>2022-07-17T04:48:51Z</time>
      </trkpt>
      <trkpt lat="45.95853" lon="6.79671">
        <ele>2170</ele>
        <time>2022-07-17T04:48:56Z</time>
      </trkpt>
      <trkpt lat="45.95849" lon="6.79664">
        <ele>2169</ele>
        <time>2022-07-17T04:49:04Z</time>
      </trkpt>
      <trkpt lat="45.95845" lon="6.79652">
        <ele>2167</ele>
        <time>2022-07-17T04:49:13Z</time>
      </trkpt>
      <trkpt lat="45.95837" lon="6.79646">
        <ele>2166</ele>
        <time>2022-07-17T04:49:21Z</time>
      </trkpt>
      <trkpt lat="45.95836" lon="6.7964">
        <ele>2166</ele>
        <time>2022-07-17T04:49:25Z</time>
      </trkpt>
      <trkpt lat="45.95832" lon="6.79636">
        <ele>2166</ele>
        <time>2022-07-17T04:49:30Z</time>
      </trkpt>
      <trkpt lat="45.9583" lon="6.79631">
        <ele>2165</ele>
        <time>2022-07-17T04:49:34Z</time>
      </trkpt>
      <trkpt lat="45.95825" lon="6.79628">
        <ele>2165</ele>
        <time>2022-07-17T04:49:39Z</time>
      </trkpt>
      <trkpt lat="45.95818" lon="6.79615">
        <ele>2163</ele>
        <time>2022-07-17T04:49:53Z</time>
      </trkpt>
      <trkpt lat="45.95817" lon="6.79609">
        <ele>2163</ele>
        <time>2022-07-17T04:49:57Z</time>
      </trkpt>
      <trkpt lat="45.95812" lon="6.79593">
        <ele>2161</ele>
        <time>2022-07-17T04:50:10Z</time>
      </trkpt>
      <trkpt lat="45.95808" lon="6.79587">
        <ele>2160</ele>
        <time>2022-07-17T04:50:14Z</time>
      </trkpt>
      <trkpt lat="45.95808" lon="6.79571">
        <ele>2160</ele>
        <time>2022-07-17T04:50:25Z</time>
      </trkpt>
      <trkpt lat="45.95805" lon="6.79566">
        <ele>2159</ele>
        <time>2022-07-17T04:50:34Z</time>
      </trkpt>
      <trkpt lat="45.95802" lon="6.79559">
        <ele>2158</ele>
        <time>2022-07-17T04:50:39Z</time>
      </trkpt>
      <trkpt lat="45.95797" lon="6.7955">
        <ele>2157</ele>
        <time>2022-07-17T04:50:48Z</time>
      </trkpt>
      <trkpt lat="45.95793" lon="6.79547">
        <ele>2156</ele>
        <time>2022-07-17T04:50:53Z</time>
      </trkpt>
      <trkpt lat="45.95783" lon="6.7953">
        <ele>2154</ele>
        <time>2022-07-17T04:51:10Z</time>
      </trkpt>
      <trkpt lat="45.95779" lon="6.79526">
        <ele>2153</ele>
        <time>2022-07-17T04:51:14Z</time>
      </trkpt>
      <trkpt lat="45.95774" lon="6.79519">
        <ele>2153</ele>
        <time>2022-07-17T04:51:21Z</time>
      </trkpt>
      <trkpt lat="45.95773" lon="6.79512">
        <ele>2154</ele>
        <time>2022-07-17T04:51:25Z</time>
      </trkpt>
      <trkpt lat="45.9577" lon="6.79505">
        <ele>2153</ele>
        <time>2022-07-17T04:51:33Z</time>
      </trkpt>
      <trkpt lat="45.95769" lon="6.79498">
        <ele>2151</ele>
        <time>2022-07-17T04:51:38Z</time>
      </trkpt>
      <trkpt lat="45.95771" lon="6.79488">
        <ele>2150</ele>
        <time>2022-07-17T04:51:46Z</time>
      </trkpt>
      <trkpt lat="45.95765" lon="6.79472">
        <ele>2147</ele>
        <time>2022-07-17T04:52:05Z</time>
      </trkpt>
      <trkpt lat="45.95763" lon="6.79465">
        <ele>2145</ele>
        <time>2022-07-17T04:52:20Z</time>
      </trkpt>
      <trkpt lat="45.95768" lon="6.79456">
        <ele>2139</ele>
        <time>2022-07-17T04:52:46Z</time>
      </trkpt>
      <trkpt lat="45.95786" lon="6.79445">
        <ele>2133</ele>
        <time>2022-07-17T04:53:18Z</time>
      </trkpt>
      <trkpt lat="45.95791" lon="6.79449">
        <ele>2132</ele>
        <time>2022-07-17T04:53:25Z</time>
      </trkpt>
      <trkpt lat="45.95795" lon="6.7944">
        <ele>2130</ele>
        <time>2022-07-17T04:53:34Z</time>
      </trkpt>
      <trkpt lat="45.95799" lon="6.79435">
        <ele>2128</ele>
        <time>2022-07-17T04:53:45Z</time>
      </trkpt>
      <trkpt lat="45.95803" lon="6.79433">
        <ele>2126</ele>
        <time>2022-07-17T04:53:55Z</time>
      </trkpt>
      <trkpt lat="45.95808" lon="6.79435">
        <ele>2125</ele>
        <time>2022-07-17T04:54:03Z</time>
      </trkpt>
      <trkpt lat="45.95812" lon="6.79437">
        <ele>2122</ele>
        <time>2022-07-17T04:54:18Z</time>
      </trkpt>
      <trkpt lat="45.9582" lon="6.79439">
        <ele>2119</ele>
        <time>2022-07-17T04:54:29Z</time>
      </trkpt>
      <trkpt lat="45.95817" lon="6.79422">
        <ele>2116</ele>
        <time>2022-07-17T04:54:42Z</time>
      </trkpt>
      <trkpt lat="45.95818" lon="6.79414">
        <ele>2113</ele>
        <time>2022-07-17T04:54:58Z</time>
      </trkpt>
      <trkpt lat="45.95816" lon="6.79408">
        <ele>2111</ele>
        <time>2022-07-17T04:55:08Z</time>
      </trkpt>
      <trkpt lat="45.9582" lon="6.79403">
        <ele>2108</ele>
        <time>2022-07-17T04:55:23Z</time>
      </trkpt>
      <trkpt lat="45.95819" lon="6.79392">
        <ele>2106</ele>
        <time>2022-07-17T04:55:34Z</time>
      </trkpt>
      <trkpt lat="45.95816" lon="6.79386">
        <ele>2106</ele>
        <time>2022-07-17T04:55:39Z</time>
      </trkpt>
      <trkpt lat="45.95812" lon="6.79385">
        <ele>2105</ele>
        <time>2022-07-17T04:55:44Z</time>
      </trkpt>
      <trkpt lat="45.95805" lon="6.7938">
        <ele>2103</ele>
        <time>2022-07-17T04:55:56Z</time>
      </trkpt>
      <trkpt lat="45.95803" lon="6.79371">
        <ele>2101</ele>
        <time>2022-07-17T04:56:07Z</time>
      </trkpt>
      <trkpt lat="45.95798" lon="6.79372">
        <ele>2100</ele>
        <time>2022-07-17T04:56:17Z</time>
      </trkpt>
      <trkpt lat="45.95793" lon="6.7937">
        <ele>2098</ele>
        <time>2022-07-17T04:56:28Z</time>
      </trkpt>
      <trkpt lat="45.95789" lon="6.79365">
        <ele>2095</ele>
        <time>2022-07-17T04:56:43Z</time>
      </trkpt>
      <trkpt lat="45.95786" lon="6.79358">
        <ele>2092</ele>
        <time>2022-07-17T04:56:58Z</time>
      </trkpt>
      <trkpt lat="45.95781" lon="6.79358">
        <ele>2090</ele>
        <time>2022-07-17T04:57:08Z</time>
      </trkpt>
      <trkpt lat="45.95777" lon="6.79354">
        <ele>2087</ele>
        <time>2022-07-17T04:57:23Z</time>
      </trkpt>
      <trkpt lat="45.95779" lon="6.79344">
        <ele>2085</ele>
        <time>2022-07-17T04:57:33Z</time>
      </trkpt>
      <trkpt lat="45.95789" lon="6.79337">
        <ele>2082</ele>
        <time>2022-07-17T04:57:50Z</time>
      </trkpt>
      <trkpt lat="45.95787" lon="6.79326">
        <ele>2079</ele>
        <time>2022-07-17T04:58:02Z</time>
      </trkpt>
      <trkpt lat="45.95782" lon="6.7932">
        <ele>2077</ele>
        <time>2022-07-17T04:58:11Z</time>
      </trkpt>
      <trkpt lat="45.95782" lon="6.79312">
        <ele>2076</ele>
        <time>2022-07-17T04:58:16Z</time>
      </trkpt>
      <trkpt lat="45.95779" lon="6.79305">
        <ele>2074</ele>
        <time>2022-07-17T04:58:24Z</time>
      </trkpt>
      <trkpt lat="45.95773" lon="6.79303">
        <ele>2073</ele>
        <time>2022-07-17T04:58:31Z</time>
      </trkpt>
      <trkpt lat="45.95771" lon="6.79297">
        <ele>2072</ele>
        <time>2022-07-17T04:58:38Z</time>
      </trkpt>
      <trkpt lat="45.95771" lon="6.79288">
        <ele>2071</ele>
        <time>2022-07-17T04:58:57Z</time>
      </trkpt>
      <trkpt lat="45.95772" lon="6.7928">
        <ele>2073</ele>
        <time>2022-07-17T04:59:06Z</time>
      </trkpt>
      <trkpt lat="45.95773" lon="6.79269">
        <ele>2074</ele>
        <time>2022-07-17T04:59:16Z</time>
      </trkpt>
      <trkpt lat="45.95776" lon="6.79257">
        <ele>2074</ele>
        <time>2022-07-17T04:59:26Z</time>
      </trkpt>
      <trkpt lat="45.9578" lon="6.79253">
        <ele>2074</ele>
        <time>2022-07-17T04:59:29Z</time>
      </trkpt>
      <trkpt lat="45.95785" lon="6.79251">
        <ele>2075</ele>
        <time>2022-07-17T04:59:34Z</time>
      </trkpt>
      <trkpt lat="45.95786" lon="6.79243">
        <ele>2075</ele>
        <time>2022-07-17T04:59:41Z</time>
      </trkpt>
      <trkpt lat="45.95792" lon="6.79236">
        <ele>2074</ele>
        <time>2022-07-17T04:59:54Z</time>
      </trkpt>
      <trkpt lat="45.95798" lon="6.79229">
        <ele>2073</ele>
        <time>2022-07-17T05:00:05Z</time>
      </trkpt>
      <trkpt lat="45.95802" lon="6.79226">
        <ele>2072</ele>
        <time>2022-07-17T05:00:12Z</time>
      </trkpt>
      <trkpt lat="45.95806" lon="6.79219">
        <ele>2071</ele>
        <time>2022-07-17T05:00:22Z</time>
      </trkpt>
      <trkpt lat="45.95815" lon="6.79215">
        <ele>2068</ele>
        <time>2022-07-17T05:00:34Z</time>
      </trkpt>
      <trkpt lat="45.9582" lon="6.79208">
        <ele>2065</ele>
        <time>2022-07-17T05:00:47Z</time>
      </trkpt>
      <trkpt lat="45.95824" lon="6.7921">
        <ele>2063</ele>
        <time>2022-07-17T05:00:57Z</time>
      </trkpt>
      <trkpt lat="45.95823" lon="6.79203">
        <ele>2061</ele>
        <time>2022-07-17T05:01:07Z</time>
      </trkpt>
      <trkpt lat="45.95822" lon="6.79197">
        <ele>2058</ele>
        <time>2022-07-17T05:01:17Z</time>
      </trkpt>
      <trkpt lat="45.95827" lon="6.79195">
        <ele>2057</ele>
        <time>2022-07-17T05:01:22Z</time>
      </trkpt>
      <trkpt lat="45.95832" lon="6.79201">
        <ele>2055</ele>
        <time>2022-07-17T05:01:31Z</time>
      </trkpt>
      <trkpt lat="45.95837" lon="6.79202">
        <ele>2054</ele>
        <time>2022-07-17T05:01:36Z</time>
      </trkpt>
      <trkpt lat="45.95845" lon="6.79201">
        <ele>2052</ele>
        <time>2022-07-17T05:01:46Z</time>
      </trkpt>
      <trkpt lat="45.95851" lon="6.79204">
        <ele>2050</ele>
        <time>2022-07-17T05:01:57Z</time>
      </trkpt>
      <trkpt lat="45.95861" lon="6.79204">
        <ele>2048</ele>
        <time>2022-07-17T05:02:06Z</time>
      </trkpt>
      <trkpt lat="45.95865" lon="6.79209">
        <ele>2047</ele>
        <time>2022-07-17T05:02:13Z</time>
      </trkpt>
      <trkpt lat="45.95877" lon="6.79205">
        <ele>2045</ele>
        <time>2022-07-17T05:02:27Z</time>
      </trkpt>
      <trkpt lat="45.95907" lon="6.79184">
        <ele>2040</ele>
        <time>2022-07-17T05:03:02Z</time>
      </trkpt>
      <trkpt lat="45.95916" lon="6.79181">
        <ele>2038</ele>
        <time>2022-07-17T05:03:11Z</time>
      </trkpt>
      <trkpt lat="45.95919" lon="6.79177">
        <ele>2038</ele>
        <time>2022-07-17T05:03:15Z</time>
      </trkpt>
      <trkpt lat="45.95925" lon="6.79174">
        <ele>2037</ele>
        <time>2022-07-17T05:03:22Z</time>
      </trkpt>
      <trkpt lat="45.9593" lon="6.79174">
        <ele>2037</ele>
        <time>2022-07-17T05:03:27Z</time>
      </trkpt>
      <trkpt lat="45.95937" lon="6.79171">
        <ele>2036</ele>
        <time>2022-07-17T05:03:36Z</time>
      </trkpt>
      <trkpt lat="45.95942" lon="6.79174">
        <ele>2035</ele>
        <time>2022-07-17T05:03:40Z</time>
      </trkpt>
      <trkpt lat="45.95954" lon="6.79164">
        <ele>2032</ele>
        <time>2022-07-17T05:03:58Z</time>
      </trkpt>
      <trkpt lat="45.95958" lon="6.79153">
        <ele>2031</ele>
        <time>2022-07-17T05:04:09Z</time>
      </trkpt>
      <trkpt lat="45.95962" lon="6.79152">
        <ele>2030</ele>
        <time>2022-07-17T05:04:14Z</time>
      </trkpt>
      <trkpt lat="45.95966" lon="6.79148">
        <ele>2029</ele>
        <time>2022-07-17T05:04:19Z</time>
      </trkpt>
      <trkpt lat="45.95968" lon="6.79141">
        <ele>2028</ele>
        <time>2022-07-17T05:04:23Z</time>
      </trkpt>
      <trkpt lat="45.95969" lon="6.79135">
        <ele>2028</ele>
        <time>2022-07-17T05:04:28Z</time>
      </trkpt>
      <trkpt lat="45.95966" lon="6.79129">
        <ele>2027</ele>
        <time>2022-07-17T05:04:35Z</time>
      </trkpt>
      <trkpt lat="45.95961" lon="6.7912">
        <ele>2026</ele>
        <time>2022-07-17T05:04:46Z</time>
      </trkpt>
      <trkpt lat="45.95963" lon="6.79113">
        <ele>2026</ele>
        <time>2022-07-17T05:04:53Z</time>
      </trkpt>
      <trkpt lat="45.95971" lon="6.79113">
        <ele>2026</ele>
        <time>2022-07-17T05:05:02Z</time>
      </trkpt>
      <trkpt lat="45.95976" lon="6.79115">
        <ele>2025</ele>
        <time>2022-07-17T05:05:09Z</time>
      </trkpt>
      <trkpt lat="45.95981" lon="6.79112">
        <ele>2024</ele>
        <time>2022-07-17T05:05:14Z</time>
      </trkpt>
      <trkpt lat="45.95987" lon="6.79111">
        <ele>2022</ele>
        <time>2022-07-17T05:05:26Z</time>
      </trkpt>
      <trkpt lat="45.95995" lon="6.79113">
        <ele>2019</ele>
        <time>2022-07-17T05:05:37Z</time>
      </trkpt>
      <trkpt lat="45.95999" lon="6.79115">
        <ele>2018</ele>
        <time>2022-07-17T05:05:43Z</time>
      </trkpt>
      <trkpt lat="45.96005" lon="6.79113">
        <ele>2015</ele>
        <time>2022-07-17T05:05:53Z</time>
      </trkpt>
      <trkpt lat="45.96008" lon="6.79107">
        <ele>2014</ele>
        <time>2022-07-17T05:05:58Z</time>
      </trkpt>
      <trkpt lat="45.96013" lon="6.79109">
        <ele>2013</ele>
        <time>2022-07-17T05:06:05Z</time>
      </trkpt>
      <trkpt lat="45.96016" lon="6.79114">
        <ele>2012</ele>
        <time>2022-07-17T05:06:10Z</time>
      </trkpt>
      <trkpt lat="45.96022" lon="6.79118">
        <ele>2009</ele>
        <time>2022-07-17T05:06:23Z</time>
      </trkpt>
      <trkpt lat="45.96026" lon="6.79116">
        <ele>2008</ele>
        <time>2022-07-17T05:06:28Z</time>
      </trkpt>
      <trkpt lat="45.96033" lon="6.79129">
        <ele>2005</ele>
        <time>2022-07-17T05:06:40Z</time>
      </trkpt>
      <trkpt lat="45.96036" lon="6.79147">
        <ele>2003</ele>
        <time>2022-07-17T05:06:57Z</time>
      </trkpt>
      <trkpt lat="45.9604" lon="6.79142">
        <ele>2001</ele>
        <time>2022-07-17T05:07:12Z</time>
      </trkpt>
      <trkpt lat="45.96045" lon="6.79144">
        <ele>1998</ele>
        <time>2022-07-17T05:07:27Z</time>
      </trkpt>
      <trkpt lat="45.9605" lon="6.7914">
        <ele>1996</ele>
        <time>2022-07-17T05:07:37Z</time>
      </trkpt>
      <trkpt lat="45.96055" lon="6.79137">
        <ele>1993</ele>
        <time>2022-07-17T05:08:07Z</time>
      </trkpt>
      <trkpt lat="45.96061" lon="6.79135">
        <ele>1990</ele>
        <time>2022-07-17T05:08:25Z</time>
      </trkpt>
      <trkpt lat="45.96065" lon="6.79132">
        <ele>1988</ele>
        <time>2022-07-17T05:08:36Z</time>
      </trkpt>
      <trkpt lat="45.9607" lon="6.79132">
        <ele>1987</ele>
        <time>2022-07-17T05:08:41Z</time>
      </trkpt>
      <trkpt lat="45.96072" lon="6.79142">
        <ele>1985</ele>
        <time>2022-07-17T05:08:47Z</time>
      </trkpt>
      <trkpt lat="45.96076" lon="6.79149">
        <ele>1983</ele>
        <time>2022-07-17T05:08:57Z</time>
      </trkpt>
      <trkpt lat="45.96082" lon="6.79151">
        <ele>1981</ele>
        <time>2022-07-17T05:09:07Z</time>
      </trkpt>
      <trkpt lat="45.96086" lon="6.79156">
        <ele>1980</ele>
        <time>2022-07-17T05:09:11Z</time>
      </trkpt>
      <trkpt lat="45.9609" lon="6.79158">
        <ele>1980</ele>
        <time>2022-07-17T05:09:18Z</time>
      </trkpt>
      <trkpt lat="45.96093" lon="6.79163">
        <ele>1979</ele>
        <time>2022-07-17T05:09:23Z</time>
      </trkpt>
      <trkpt lat="45.96098" lon="6.79162">
        <ele>1978</ele>
        <time>2022-07-17T05:09:28Z</time>
      </trkpt>
      <trkpt lat="45.96103" lon="6.79165">
        <ele>1977</ele>
        <time>2022-07-17T05:09:33Z</time>
      </trkpt>
      <trkpt lat="45.96108" lon="6.79165">
        <ele>1976</ele>
        <time>2022-07-17T05:09:41Z</time>
      </trkpt>
      <trkpt lat="45.96119" lon="6.79175">
        <ele>1972</ele>
        <time>2022-07-17T05:09:58Z</time>
      </trkpt>
      <trkpt lat="45.96123" lon="6.79179">
        <ele>1971</ele>
        <time>2022-07-17T05:10:04Z</time>
      </trkpt>
      <trkpt lat="45.96126" lon="6.79184">
        <ele>1970</ele>
        <time>2022-07-17T05:10:08Z</time>
      </trkpt>
      <trkpt lat="45.96131" lon="6.79186">
        <ele>1970</ele>
        <time>2022-07-17T05:10:15Z</time>
      </trkpt>
      <trkpt lat="45.96136" lon="6.79188">
        <ele>1969</ele>
        <time>2022-07-17T05:10:20Z</time>
      </trkpt>
      <trkpt lat="45.96147" lon="6.792">
        <ele>1969</ele>
        <time>2022-07-17T05:10:33Z</time>
      </trkpt>
      <trkpt lat="45.96149" lon="6.79206">
        <ele>1969</ele>
        <time>2022-07-17T05:10:37Z</time>
      </trkpt>
      <trkpt lat="45.96156" lon="6.79209">
        <ele>1967</ele>
        <time>2022-07-17T05:10:46Z</time>
      </trkpt>
      <trkpt lat="45.96163" lon="6.79211">
        <ele>1964</ele>
        <time>2022-07-17T05:10:58Z</time>
      </trkpt>
      <trkpt lat="45.96185" lon="6.79211">
        <ele>1959</ele>
        <time>2022-07-17T05:11:22Z</time>
      </trkpt>
      <trkpt lat="45.96197" lon="6.79208">
        <ele>1959</ele>
        <time>2022-07-17T05:11:36Z</time>
      </trkpt>
      <trkpt lat="45.96202" lon="6.79206">
        <ele>1958</ele>
        <time>2022-07-17T05:11:41Z</time>
      </trkpt>
      <trkpt lat="45.96207" lon="6.79206">
        <ele>1957</ele>
        <time>2022-07-17T05:11:46Z</time>
      </trkpt>
      <trkpt lat="45.96212" lon="6.79193">
        <ele>1955</ele>
        <time>2022-07-17T05:12:01Z</time>
      </trkpt>
      <trkpt lat="45.96217" lon="6.79184">
        <ele>1954</ele>
        <time>2022-07-17T05:12:10Z</time>
      </trkpt>
      <trkpt lat="45.96225" lon="6.7918">
        <ele>1952</ele>
        <time>2022-07-17T05:12:17Z</time>
      </trkpt>
      <trkpt lat="45.96228" lon="6.79186">
        <ele>1952</ele>
        <time>2022-07-17T05:12:22Z</time>
      </trkpt>
      <trkpt lat="45.96227" lon="6.79194">
        <ele>1952</ele>
        <time>2022-07-17T05:12:27Z</time>
      </trkpt>
      <trkpt lat="45.96232" lon="6.79199">
        <ele>1950</ele>
        <time>2022-07-17T05:14:30Z</time>
      </trkpt>
      <trkpt lat="45.96237" lon="6.79203">
        <ele>1951</ele>
        <time>2022-07-17T05:14:40Z</time>
      </trkpt>
      <trkpt lat="45.9624" lon="6.79214">
        <ele>1950</ele>
        <time>2022-07-17T05:14:51Z</time>
      </trkpt>
      <trkpt lat="45.96243" lon="6.79217">
        <ele>1949</ele>
        <time>2022-07-17T05:14:54Z</time>
      </trkpt>
      <trkpt lat="45.96247" lon="6.79222">
        <ele>1949</ele>
        <time>2022-07-17T05:14:58Z</time>
      </trkpt>
      <trkpt lat="45.96251" lon="6.79226">
        <ele>1950</ele>
        <time>2022-07-17T05:15:07Z</time>
      </trkpt>
      <trkpt lat="45.96254" lon="6.79234">
        <ele>1951</ele>
        <time>2022-07-17T05:15:17Z</time>
      </trkpt>
      <trkpt lat="45.96261" lon="6.79238">
        <ele>1953</ele>
        <time>2022-07-17T05:15:27Z</time>
      </trkpt>
      <trkpt lat="45.96266" lon="6.79239">
        <ele>1953</ele>
        <time>2022-07-17T05:15:31Z</time>
      </trkpt>
      <trkpt lat="45.96279" lon="6.79247">
        <ele>1951</ele>
        <time>2022-07-17T05:15:46Z</time>
      </trkpt>
      <trkpt lat="45.96281" lon="6.79255">
        <ele>1949</ele>
        <time>2022-07-17T05:16:22Z</time>
      </trkpt>
      <trkpt lat="45.96287" lon="6.79255">
        <ele>1946</ele>
        <time>2022-07-17T05:16:32Z</time>
      </trkpt>
      <trkpt lat="45.96291" lon="6.79253">
        <ele>1945</ele>
        <time>2022-07-17T05:16:38Z</time>
      </trkpt>
      <trkpt lat="45.96292" lon="6.79263">
        <ele>1946</ele>
        <time>2022-07-17T05:16:49Z</time>
      </trkpt>
      <trkpt lat="45.96296" lon="6.79266">
        <ele>1946</ele>
        <time>2022-07-17T05:16:53Z</time>
      </trkpt>
      <trkpt lat="45.96299" lon="6.79277">
        <ele>1949</ele>
        <time>2022-07-17T05:17:09Z</time>
      </trkpt>
      <trkpt lat="45.96302" lon="6.79282">
        <ele>1949</ele>
        <time>2022-07-17T05:17:14Z</time>
      </trkpt>
      <trkpt lat="45.96304" lon="6.79291">
        <ele>1951</ele>
        <time>2022-07-17T05:17:24Z</time>
      </trkpt>
      <trkpt lat="45.96302" lon="6.79299">
        <ele>1952</ele>
        <time>2022-07-17T05:17:34Z</time>
      </trkpt>
      <trkpt lat="45.96301" lon="6.79305">
        <ele>1954</ele>
        <time>2022-07-17T05:17:44Z</time>
      </trkpt>
      <trkpt lat="45.96294" lon="6.79317">
        <ele>1955</ele>
        <time>2022-07-17T05:17:56Z</time>
      </trkpt>
      <trkpt lat="45.96292" lon="6.79325">
        <ele>1956</ele>
        <time>2022-07-17T05:18:03Z</time>
      </trkpt>
      <trkpt lat="45.96293" lon="6.79331">
        <ele>1957</ele>
        <time>2022-07-17T05:18:08Z</time>
      </trkpt>
      <trkpt lat="45.96295" lon="6.79338">
        <ele>1957</ele>
        <time>2022-07-17T05:18:14Z</time>
      </trkpt>
      <trkpt lat="45.96298" lon="6.79343">
        <ele>1956</ele>
        <time>2022-07-17T05:18:18Z</time>
      </trkpt>
      <trkpt lat="45.96299" lon="6.7935">
        <ele>1956</ele>
        <time>2022-07-17T05:18:25Z</time>
      </trkpt>
      <trkpt lat="45.96301" lon="6.79356">
        <ele>1955</ele>
        <time>2022-07-17T05:18:29Z</time>
      </trkpt>
      <trkpt lat="45.96304" lon="6.79361">
        <ele>1954</ele>
        <time>2022-07-17T05:18:33Z</time>
      </trkpt>
      <trkpt lat="45.96308" lon="6.79366">
        <ele>1954</ele>
        <time>2022-07-17T05:18:37Z</time>
      </trkpt>
      <trkpt lat="45.96312" lon="6.79368">
        <ele>1954</ele>
        <time>2022-07-17T05:18:42Z</time>
      </trkpt>
      <trkpt lat="45.9632" lon="6.79385">
        <ele>1951</ele>
        <time>2022-07-17T05:18:59Z</time>
      </trkpt>
      <trkpt lat="45.96321" lon="6.79394">
        <ele>1949</ele>
        <time>2022-07-17T05:19:07Z</time>
      </trkpt>
      <trkpt lat="45.96324" lon="6.79407">
        <ele>1947</ele>
        <time>2022-07-17T05:19:16Z</time>
      </trkpt>
      <trkpt lat="45.96328" lon="6.79411">
        <ele>1947</ele>
        <time>2022-07-17T05:19:20Z</time>
      </trkpt>
      <trkpt lat="45.96332" lon="6.79415">
        <ele>1947</ele>
        <time>2022-07-17T05:19:24Z</time>
      </trkpt>
      <trkpt lat="45.96336" lon="6.79418">
        <ele>1948</ele>
        <time>2022-07-17T05:19:28Z</time>
      </trkpt>
      <trkpt lat="45.96345" lon="6.79421">
        <ele>1949</ele>
        <time>2022-07-17T05:19:38Z</time>
      </trkpt>
      <trkpt lat="45.9635" lon="6.79423">
        <ele>1949</ele>
        <time>2022-07-17T05:19:42Z</time>
      </trkpt>
      <trkpt lat="45.96355" lon="6.79423">
        <ele>1949</ele>
        <time>2022-07-17T05:19:47Z</time>
      </trkpt>
      <trkpt lat="45.96357" lon="6.7943">
        <ele>1948</ele>
        <time>2022-07-17T05:19:51Z</time>
      </trkpt>
      <trkpt lat="45.96357" lon="6.79437">
        <ele>1947</ele>
        <time>2022-07-17T05:19:55Z</time>
      </trkpt>
      <trkpt lat="45.96359" lon="6.79443">
        <ele>1947</ele>
        <time>2022-07-17T05:19:59Z</time>
      </trkpt>
      <trkpt lat="45.96365" lon="6.79453">
        <ele>1946</ele>
        <time>2022-07-17T05:20:07Z</time>
      </trkpt>
      <trkpt lat="45.96368" lon="6.79461">
        <ele>1946</ele>
        <time>2022-07-17T05:20:12Z</time>
      </trkpt>
      <trkpt lat="45.9637" lon="6.79466">
        <ele>1946</ele>
        <time>2022-07-17T05:20:16Z</time>
      </trkpt>
      <trkpt lat="45.96372" lon="6.79474">
        <ele>1946</ele>
        <time>2022-07-17T05:20:22Z</time>
      </trkpt>
      <trkpt lat="45.96371" lon="6.79481">
        <ele>1946</ele>
        <time>2022-07-17T05:20:26Z</time>
      </trkpt>
      <trkpt lat="45.96367" lon="6.79485">
        <ele>1946</ele>
        <time>2022-07-17T05:20:31Z</time>
      </trkpt>
      <trkpt lat="45.96363" lon="6.79487">
        <ele>1946</ele>
        <time>2022-07-17T05:20:35Z</time>
      </trkpt>
      <trkpt lat="45.96359" lon="6.79492">
        <ele>1945</ele>
        <time>2022-07-17T05:20:39Z</time>
      </trkpt>
      <trkpt lat="45.96339" lon="6.79509">
        <ele>1947</ele>
        <time>2022-07-17T05:21:03Z</time>
      </trkpt>
      <trkpt lat="45.96336" lon="6.79515">
        <ele>1947</ele>
        <time>2022-07-17T05:21:07Z</time>
      </trkpt>
      <trkpt lat="45.96335" lon="6.79521">
        <ele>1947</ele>
        <time>2022-07-17T05:21:11Z</time>
      </trkpt>
      <trkpt lat="45.96331" lon="6.79524">
        <ele>1947</ele>
        <time>2022-07-17T05:21:16Z</time>
      </trkpt>
      <trkpt lat="45.96327" lon="6.79528">
        <ele>1947</ele>
        <time>2022-07-17T05:21:21Z</time>
      </trkpt>
      <trkpt lat="45.96322" lon="6.7953">
        <ele>1947</ele>
        <time>2022-07-17T05:21:26Z</time>
      </trkpt>
      <trkpt lat="45.96318" lon="6.79528">
        <ele>1947</ele>
        <time>2022-07-17T05:21:31Z</time>
      </trkpt>
      <trkpt lat="45.96314" lon="6.79526">
        <ele>1946</ele>
        <time>2022-07-17T05:21:41Z</time>
      </trkpt>
      <trkpt lat="45.96314" lon="6.79533">
        <ele>1946</ele>
        <time>2022-07-17T05:22:21Z</time>
      </trkpt>
      <trkpt lat="45.96316" lon="6.79539">
        <ele>1949</ele>
        <time>2022-07-17T05:30:19Z</time>
      </trkpt>
      <trkpt lat="45.96318" lon="6.79538">
        <ele>1950</ele>
        <time>2022-07-17T05:36:16Z</time>
      </trkpt>
      <trkpt lat="45.96315" lon="6.79532">
        <ele>1950</ele>
        <time>2022-07-17T05:36:21Z</time>
      </trkpt>
      <trkpt lat="45.96315" lon="6.79529">
        <ele>1950</ele>
        <time>2022-07-17T05:39:54Z</time>
      </trkpt>
      <trkpt lat="45.96314" lon="6.79535">
        <ele>1948</ele>
        <time>2022-07-17T05:46:07Z</time>
      </trkpt>
      <trkpt lat="45.96319" lon="6.79538">
        <ele>1948</ele>
        <time>2022-07-17T05:46:19Z</time>
      </trkpt>
      <trkpt lat="45.96326" lon="6.79533">
        <ele>1948</ele>
        <time>2022-07-17T05:46:27Z</time>
      </trkpt>
      <trkpt lat="45.96329" lon="6.79529">
        <ele>1949</ele>
        <time>2022-07-17T05:46:31Z</time>
      </trkpt>
      <trkpt lat="45.96334" lon="6.79525">
        <ele>1949</ele>
        <time>2022-07-17T05:46:35Z</time>
      </trkpt>
      <trkpt lat="45.96337" lon="6.7952">
        <ele>1949</ele>
        <time>2022-07-17T05:46:39Z</time>
      </trkpt>
      <trkpt lat="45.96339" lon="6.79514">
        <ele>1948</ele>
        <time>2022-07-17T05:46:43Z</time>
      </trkpt>
      <trkpt lat="45.96343" lon="6.79509">
        <ele>1948</ele>
        <time>2022-07-17T05:46:47Z</time>
      </trkpt>
      <trkpt lat="45.96348" lon="6.79506">
        <ele>1948</ele>
        <time>2022-07-17T05:46:51Z</time>
      </trkpt>
      <trkpt lat="45.9636" lon="6.79495">
        <ele>1947</ele>
        <time>2022-07-17T05:47:03Z</time>
      </trkpt>
      <trkpt lat="45.96366" lon="6.79485">
        <ele>1947</ele>
        <time>2022-07-17T05:47:13Z</time>
      </trkpt>
      <trkpt lat="45.9637" lon="6.79482">
        <ele>1948</ele>
        <time>2022-07-17T05:47:18Z</time>
      </trkpt>
      <trkpt lat="45.96373" lon="6.79476">
        <ele>1948</ele>
        <time>2022-07-17T05:47:23Z</time>
      </trkpt>
      <trkpt lat="45.96371" lon="6.79462">
        <ele>1948</ele>
        <time>2022-07-17T05:47:33Z</time>
      </trkpt>
      <trkpt lat="45.96368" lon="6.79457">
        <ele>1948</ele>
        <time>2022-07-17T05:47:37Z</time>
      </trkpt>
      <trkpt lat="45.96378" lon="6.79443">
        <ele>1949</ele>
        <time>2022-07-17T05:47:52Z</time>
      </trkpt>
      <trkpt lat="45.96384" lon="6.79438">
        <ele>1951</ele>
        <time>2022-07-17T05:48:04Z</time>
      </trkpt>
      <trkpt lat="45.96386" lon="6.79423">
        <ele>1956</ele>
        <time>2022-07-17T05:48:25Z</time>
      </trkpt>
      <trkpt lat="45.96391" lon="6.79424">
        <ele>1957</ele>
        <time>2022-07-17T05:48:30Z</time>
      </trkpt>
      <trkpt lat="45.96395" lon="6.79422">
        <ele>1957</ele>
        <time>2022-07-17T05:48:37Z</time>
      </trkpt>
      <trkpt lat="45.96403" lon="6.79424">
        <ele>1958</ele>
        <time>2022-07-17T05:48:48Z</time>
      </trkpt>
      <trkpt lat="45.96411" lon="6.79422">
        <ele>1959</ele>
        <time>2022-07-17T05:48:58Z</time>
      </trkpt>
      <trkpt lat="45.96417" lon="6.79425">
        <ele>1960</ele>
        <time>2022-07-17T05:49:09Z</time>
      </trkpt>
      <trkpt lat="45.96423" lon="6.79417">
        <ele>1961</ele>
        <time>2022-07-17T05:49:19Z</time>
      </trkpt>
      <trkpt lat="45.96423" lon="6.7941">
        <ele>1961</ele>
        <time>2022-07-17T05:49:24Z</time>
      </trkpt>
      <trkpt lat="45.96428" lon="6.79407">
        <ele>1960</ele>
        <time>2022-07-17T05:49:28Z</time>
      </trkpt>
      <trkpt lat="45.9643" lon="6.794">
        <ele>1961</ele>
        <time>2022-07-17T05:49:36Z</time>
      </trkpt>
      <trkpt lat="45.96434" lon="6.79392">
        <ele>1963</ele>
        <time>2022-07-17T05:49:46Z</time>
      </trkpt>
      <trkpt lat="45.96439" lon="6.79389">
        <ele>1963</ele>
        <time>2022-07-17T05:49:51Z</time>
      </trkpt>
      <trkpt lat="45.96443" lon="6.79383">
        <ele>1964</ele>
        <time>2022-07-17T05:49:58Z</time>
      </trkpt>
      <trkpt lat="45.96448" lon="6.7938">
        <ele>1963</ele>
        <time>2022-07-17T05:50:03Z</time>
      </trkpt>
      <trkpt lat="45.96452" lon="6.79379">
        <ele>1962</ele>
        <time>2022-07-17T05:50:07Z</time>
      </trkpt>
      <trkpt lat="45.96456" lon="6.79379">
        <ele>1962</ele>
        <time>2022-07-17T05:50:11Z</time>
      </trkpt>
      <trkpt lat="45.9646" lon="6.79384">
        <ele>1962</ele>
        <time>2022-07-17T05:50:16Z</time>
      </trkpt>
      <trkpt lat="45.9647" lon="6.79388">
        <ele>1963</ele>
        <time>2022-07-17T05:50:26Z</time>
      </trkpt>
      <trkpt lat="45.96479" lon="6.79388">
        <ele>1961</ele>
        <time>2022-07-17T05:50:38Z</time>
      </trkpt>
      <trkpt lat="45.96483" lon="6.79391">
        <ele>1960</ele>
        <time>2022-07-17T05:50:45Z</time>
      </trkpt>
      <trkpt lat="45.96487" lon="6.79387">
        <ele>1958</ele>
        <time>2022-07-17T05:50:55Z</time>
      </trkpt>
      <trkpt lat="45.96494" lon="6.79394">
        <ele>1955</ele>
        <time>2022-07-17T05:51:05Z</time>
      </trkpt>
      <trkpt lat="45.96506" lon="6.79399">
        <ele>1950</ele>
        <time>2022-07-17T05:51:26Z</time>
      </trkpt>
      <trkpt lat="45.96512" lon="6.79397">
        <ele>1948</ele>
        <time>2022-07-17T05:51:36Z</time>
      </trkpt>
      <trkpt lat="45.96516" lon="6.794">
        <ele>1947</ele>
        <time>2022-07-17T05:51:39Z</time>
      </trkpt>
      <trkpt lat="45.96522" lon="6.79407">
        <ele>1946</ele>
        <time>2022-07-17T05:51:47Z</time>
      </trkpt>
      <trkpt lat="45.96541" lon="6.79417">
        <ele>1945</ele>
        <time>2022-07-17T05:52:06Z</time>
      </trkpt>
      <trkpt lat="45.96546" lon="6.79418">
        <ele>1944</ele>
        <time>2022-07-17T05:52:12Z</time>
      </trkpt>
      <trkpt lat="45.96551" lon="6.7942">
        <ele>1943</ele>
        <time>2022-07-17T05:52:17Z</time>
      </trkpt>
      <trkpt lat="45.9656" lon="6.79419">
        <ele>1941</ele>
        <time>2022-07-17T05:52:27Z</time>
      </trkpt>
      <trkpt lat="45.96565" lon="6.79419">
        <ele>1941</ele>
        <time>2022-07-17T05:52:31Z</time>
      </trkpt>
      <trkpt lat="45.9657" lon="6.79415">
        <ele>1940</ele>
        <time>2022-07-17T05:52:35Z</time>
      </trkpt>
      <trkpt lat="45.96574" lon="6.79415">
        <ele>1940</ele>
        <time>2022-07-17T05:52:40Z</time>
      </trkpt>
      <trkpt lat="45.96587" lon="6.79404">
        <ele>1936</ele>
        <time>2022-07-17T05:52:54Z</time>
      </trkpt>
      <trkpt lat="45.96592" lon="6.79406">
        <ele>1935</ele>
        <time>2022-07-17T05:52:59Z</time>
      </trkpt>
      <trkpt lat="45.96597" lon="6.79405">
        <ele>1934</ele>
        <time>2022-07-17T05:53:03Z</time>
      </trkpt>
      <trkpt lat="45.96601" lon="6.79401">
        <ele>1934</ele>
        <time>2022-07-17T05:53:08Z</time>
      </trkpt>
      <trkpt lat="45.96603" lon="6.79394">
        <ele>1933</ele>
        <time>2022-07-17T05:53:20Z</time>
      </trkpt>
      <trkpt lat="45.96601" lon="6.79384">
        <ele>1934</ele>
        <time>2022-07-17T05:53:26Z</time>
      </trkpt>
      <trkpt lat="45.96601" lon="6.79349">
        <ele>1933</ele>
        <time>2022-07-17T05:53:46Z</time>
      </trkpt>
      <trkpt lat="45.96602" lon="6.79342">
        <ele>1934</ele>
        <time>2022-07-17T05:53:50Z</time>
      </trkpt>
      <trkpt lat="45.96605" lon="6.79336">
        <ele>1933</ele>
        <time>2022-07-17T05:53:54Z</time>
      </trkpt>
      <trkpt lat="45.96605" lon="6.7933">
        <ele>1933</ele>
        <time>2022-07-17T05:53:57Z</time>
      </trkpt>
      <trkpt lat="45.96607" lon="6.79323">
        <ele>1934</ele>
        <time>2022-07-17T05:54:01Z</time>
      </trkpt>
      <trkpt lat="45.9661" lon="6.79318">
        <ele>1934</ele>
        <time>2022-07-17T05:54:05Z</time>
      </trkpt>
      <trkpt lat="45.96617" lon="6.79309">
        <ele>1934</ele>
        <time>2022-07-17T05:54:13Z</time>
      </trkpt>
      <trkpt lat="45.96623" lon="6.79311">
        <ele>1933</ele>
        <time>2022-07-17T05:54:21Z</time>
      </trkpt>
      <trkpt lat="45.96631" lon="6.79307">
        <ele>1930</ele>
        <time>2022-07-17T05:54:34Z</time>
      </trkpt>
      <trkpt lat="45.96633" lon="6.79302">
        <ele>1929</ele>
        <time>2022-07-17T05:54:41Z</time>
      </trkpt>
      <trkpt lat="45.96639" lon="6.79298">
        <ele>1926</ele>
        <time>2022-07-17T05:54:52Z</time>
      </trkpt>
      <trkpt lat="45.96644" lon="6.79299">
        <ele>1925</ele>
        <time>2022-07-17T05:54:56Z</time>
      </trkpt>
      <trkpt lat="45.9665" lon="6.79306">
        <ele>1924</ele>
        <time>2022-07-17T05:55:06Z</time>
      </trkpt>
      <trkpt lat="45.96655" lon="6.79304">
        <ele>1923</ele>
        <time>2022-07-17T05:55:11Z</time>
      </trkpt>
      <trkpt lat="45.96662" lon="6.79296">
        <ele>1920</ele>
        <time>2022-07-17T05:55:23Z</time>
      </trkpt>
      <trkpt lat="45.96664" lon="6.7928">
        <ele>1918</ele>
        <time>2022-07-17T05:55:36Z</time>
      </trkpt>
      <trkpt lat="45.96663" lon="6.79274">
        <ele>1917</ele>
        <time>2022-07-17T05:55:40Z</time>
      </trkpt>
      <trkpt lat="45.96665" lon="6.79262">
        <ele>1915</ele>
        <time>2022-07-17T05:55:49Z</time>
      </trkpt>
      <trkpt lat="45.96666" lon="6.79253">
        <ele>1913</ele>
        <time>2022-07-17T05:55:56Z</time>
      </trkpt>
      <trkpt lat="45.9667" lon="6.79248">
        <ele>1912</ele>
        <time>2022-07-17T05:56:01Z</time>
      </trkpt>
      <trkpt lat="45.9668" lon="6.79244">
        <ele>1910</ele>
        <time>2022-07-17T05:56:09Z</time>
      </trkpt>
      <trkpt lat="45.96683" lon="6.7924">
        <ele>1909</ele>
        <time>2022-07-17T05:56:13Z</time>
      </trkpt>
      <trkpt lat="45.96685" lon="6.79235">
        <ele>1908</ele>
        <time>2022-07-17T05:56:17Z</time>
      </trkpt>
      <trkpt lat="45.96685" lon="6.79226">
        <ele>1907</ele>
        <time>2022-07-17T05:56:24Z</time>
      </trkpt>
      <trkpt lat="45.9669" lon="6.79225">
        <ele>1906</ele>
        <time>2022-07-17T05:56:29Z</time>
      </trkpt>
      <trkpt lat="45.96692" lon="6.79217">
        <ele>1904</ele>
        <time>2022-07-17T05:56:37Z</time>
      </trkpt>
      <trkpt lat="45.96697" lon="6.79218">
        <ele>1902</ele>
        <time>2022-07-17T05:56:41Z</time>
      </trkpt>
      <trkpt lat="45.96702" lon="6.79215">
        <ele>1901</ele>
        <time>2022-07-17T05:56:48Z</time>
      </trkpt>
      <trkpt lat="45.96713" lon="6.79204">
        <ele>1897</ele>
        <time>2022-07-17T05:57:03Z</time>
      </trkpt>
      <trkpt lat="45.96715" lon="6.79194">
        <ele>1895</ele>
        <time>2022-07-17T05:57:12Z</time>
      </trkpt>
      <trkpt lat="45.96712" lon="6.79184">
        <ele>1893</ele>
        <time>2022-07-17T05:57:22Z</time>
      </trkpt>
      <trkpt lat="45.96709" lon="6.79176">
        <ele>1890</ele>
        <time>2022-07-17T05:57:32Z</time>
      </trkpt>
      <trkpt lat="45.96704" lon="6.79161">
        <ele>1886</ele>
        <time>2022-07-17T05:57:47Z</time>
      </trkpt>
      <trkpt lat="45.96706" lon="6.79154">
        <ele>1884</ele>
        <time>2022-07-17T05:57:54Z</time>
      </trkpt>
      <trkpt lat="45.96706" lon="6.79148">
        <ele>1882</ele>
        <time>2022-07-17T05:58:00Z</time>
      </trkpt>
      <trkpt lat="45.96713" lon="6.79147">
        <ele>1880</ele>
        <time>2022-07-17T05:58:10Z</time>
      </trkpt>
      <trkpt lat="45.96718" lon="6.79151">
        <ele>1877</ele>
        <time>2022-07-17T05:58:20Z</time>
      </trkpt>
      <trkpt lat="45.96722" lon="6.79153">
        <ele>1876</ele>
        <time>2022-07-17T05:58:25Z</time>
      </trkpt>
      <trkpt lat="45.96727" lon="6.79154">
        <ele>1874</ele>
        <time>2022-07-17T05:58:29Z</time>
      </trkpt>
      <trkpt lat="45.96732" lon="6.7915">
        <ele>1874</ele>
        <time>2022-07-17T05:58:36Z</time>
      </trkpt>
      <trkpt lat="45.96736" lon="6.79146">
        <ele>1872</ele>
        <time>2022-07-17T05:58:43Z</time>
      </trkpt>
      <trkpt lat="45.9674" lon="6.79139">
        <ele>1869</ele>
        <time>2022-07-17T05:58:54Z</time>
      </trkpt>
      <trkpt lat="45.96744" lon="6.79137">
        <ele>1867</ele>
        <time>2022-07-17T05:59:04Z</time>
      </trkpt>
      <trkpt lat="45.96759" lon="6.79137">
        <ele>1862</ele>
        <time>2022-07-17T05:59:24Z</time>
      </trkpt>
      <trkpt lat="45.96764" lon="6.79133">
        <ele>1859</ele>
        <time>2022-07-17T05:59:34Z</time>
      </trkpt>
      <trkpt lat="45.9677" lon="6.79127">
        <ele>1856</ele>
        <time>2022-07-17T05:59:44Z</time>
      </trkpt>
      <trkpt lat="45.96761" lon="6.79114">
        <ele>1852</ele>
        <time>2022-07-17T06:00:00Z</time>
      </trkpt>
      <trkpt lat="45.96757" lon="6.79111">
        <ele>1851</ele>
        <time>2022-07-17T06:00:07Z</time>
      </trkpt>
      <trkpt lat="45.96758" lon="6.79102">
        <ele>1847</ele>
        <time>2022-07-17T06:00:19Z</time>
      </trkpt>
      <trkpt lat="45.96769" lon="6.79095">
        <ele>1844</ele>
        <time>2022-07-17T06:00:34Z</time>
      </trkpt>
      <trkpt lat="45.96773" lon="6.79091">
        <ele>1842</ele>
        <time>2022-07-17T06:00:41Z</time>
      </trkpt>
      <trkpt lat="45.96773" lon="6.79084">
        <ele>1841</ele>
        <time>2022-07-17T06:00:47Z</time>
      </trkpt>
      <trkpt lat="45.96767" lon="6.79073">
        <ele>1838</ele>
        <time>2022-07-17T06:00:58Z</time>
      </trkpt>
      <trkpt lat="45.96758" lon="6.79065">
        <ele>1835</ele>
        <time>2022-07-17T06:01:09Z</time>
      </trkpt>
      <trkpt lat="45.96751" lon="6.79066">
        <ele>1834</ele>
        <time>2022-07-17T06:01:15Z</time>
      </trkpt>
      <trkpt lat="45.96747" lon="6.79059">
        <ele>1833</ele>
        <time>2022-07-17T06:01:21Z</time>
      </trkpt>
      <trkpt lat="45.96744" lon="6.79055">
        <ele>1833</ele>
        <time>2022-07-17T06:01:25Z</time>
      </trkpt>
      <trkpt lat="45.96742" lon="6.79049">
        <ele>1832</ele>
        <time>2022-07-17T06:01:34Z</time>
      </trkpt>
      <trkpt lat="45.96741" lon="6.79034">
        <ele>1829</ele>
        <time>2022-07-17T06:01:46Z</time>
      </trkpt>
      <trkpt lat="45.96734" lon="6.79029">
        <ele>1828</ele>
        <time>2022-07-17T06:01:56Z</time>
      </trkpt>
      <trkpt lat="45.96732" lon="6.79024">
        <ele>1827</ele>
        <time>2022-07-17T06:02:00Z</time>
      </trkpt>
      <trkpt lat="45.96731" lon="6.79016">
        <ele>1827</ele>
        <time>2022-07-17T06:02:08Z</time>
      </trkpt>
      <trkpt lat="45.96726" lon="6.79011">
        <ele>1827</ele>
        <time>2022-07-17T06:02:15Z</time>
      </trkpt>
      <trkpt lat="45.96723" lon="6.79005">
        <ele>1826</ele>
        <time>2022-07-17T06:02:20Z</time>
      </trkpt>
      <trkpt lat="45.96718" lon="6.78994">
        <ele>1826</ele>
        <time>2022-07-17T06:02:28Z</time>
      </trkpt>
      <trkpt lat="45.9671" lon="6.78984">
        <ele>1827</ele>
        <time>2022-07-17T06:02:36Z</time>
      </trkpt>
      <trkpt lat="45.96706" lon="6.78979">
        <ele>1827</ele>
        <time>2022-07-17T06:02:40Z</time>
      </trkpt>
      <trkpt lat="45.96698" lon="6.78975">
        <ele>1826</ele>
        <time>2022-07-17T06:02:48Z</time>
      </trkpt>
      <trkpt lat="45.96693" lon="6.78973">
        <ele>1827</ele>
        <time>2022-07-17T06:02:53Z</time>
      </trkpt>
      <trkpt lat="45.96689" lon="6.78965">
        <ele>1827</ele>
        <time>2022-07-17T06:03:01Z</time>
      </trkpt>
      <trkpt lat="45.96687" lon="6.78959">
        <ele>1826</ele>
        <time>2022-07-17T06:03:07Z</time>
      </trkpt>
      <trkpt lat="45.96675" lon="6.78943">
        <ele>1824</ele>
        <time>2022-07-17T06:03:23Z</time>
      </trkpt>
      <trkpt lat="45.96671" lon="6.78941">
        <ele>1824</ele>
        <time>2022-07-17T06:03:27Z</time>
      </trkpt>
      <trkpt lat="45.96667" lon="6.7894">
        <ele>1825</ele>
        <time>2022-07-17T06:03:35Z</time>
      </trkpt>
      <trkpt lat="45.96659" lon="6.78937">
        <ele>1828</ele>
        <time>2022-07-17T06:03:55Z</time>
      </trkpt>
      <trkpt lat="45.96653" lon="6.78929">
        <ele>1829</ele>
        <time>2022-07-17T06:04:04Z</time>
      </trkpt>
      <trkpt lat="45.96648" lon="6.7892">
        <ele>1829</ele>
        <time>2022-07-17T06:04:16Z</time>
      </trkpt>
      <trkpt lat="45.96642" lon="6.78913">
        <ele>1830</ele>
        <time>2022-07-17T06:04:27Z</time>
      </trkpt>
      <trkpt lat="45.96636" lon="6.78899">
        <ele>1827</ele>
        <time>2022-07-17T06:04:44Z</time>
      </trkpt>
      <trkpt lat="45.96617" lon="6.78873">
        <ele>1823</ele>
        <time>2022-07-17T06:05:09Z</time>
      </trkpt>
      <trkpt lat="45.96613" lon="6.78866">
        <ele>1822</ele>
        <time>2022-07-17T06:05:16Z</time>
      </trkpt>
      <trkpt lat="45.96607" lon="6.78858">
        <ele>1820</ele>
        <time>2022-07-17T06:05:26Z</time>
      </trkpt>
      <trkpt lat="45.96608" lon="6.7885">
        <ele>1816</ele>
        <time>2022-07-17T06:05:48Z</time>
      </trkpt>
      <trkpt lat="45.96601" lon="6.78834">
        <ele>1811</ele>
        <time>2022-07-17T06:06:07Z</time>
      </trkpt>
      <trkpt lat="45.96598" lon="6.7883">
        <ele>1810</ele>
        <time>2022-07-17T06:06:11Z</time>
      </trkpt>
      <trkpt lat="45.96594" lon="6.78819">
        <ele>1808</ele>
        <time>2022-07-17T06:06:19Z</time>
      </trkpt>
      <trkpt lat="45.96592" lon="6.78813">
        <ele>1809</ele>
        <time>2022-07-17T06:06:31Z</time>
      </trkpt>
      <trkpt lat="45.96586" lon="6.78802">
        <ele>1805</ele>
        <time>2022-07-17T06:06:45Z</time>
      </trkpt>
      <trkpt lat="45.96583" lon="6.78798">
        <ele>1805</ele>
        <time>2022-07-17T06:06:49Z</time>
      </trkpt>
      <trkpt lat="45.96579" lon="6.7879">
        <ele>1804</ele>
        <time>2022-07-17T06:06:56Z</time>
      </trkpt>
      <trkpt lat="45.96574" lon="6.78786">
        <ele>1803</ele>
        <time>2022-07-17T06:07:00Z</time>
      </trkpt>
      <trkpt lat="45.9657" lon="6.78778">
        <ele>1802</ele>
        <time>2022-07-17T06:07:08Z</time>
      </trkpt>
      <trkpt lat="45.96554" lon="6.7876">
        <ele>1798</ele>
        <time>2022-07-17T06:07:31Z</time>
      </trkpt>
      <trkpt lat="45.96552" lon="6.78754">
        <ele>1796</ele>
        <time>2022-07-17T06:07:39Z</time>
      </trkpt>
      <trkpt lat="45.96548" lon="6.7875">
        <ele>1795</ele>
        <time>2022-07-17T06:07:43Z</time>
      </trkpt>
      <trkpt lat="45.96542" lon="6.78736">
        <ele>1792</ele>
        <time>2022-07-17T06:07:56Z</time>
      </trkpt>
      <trkpt lat="45.96535" lon="6.7873">
        <ele>1792</ele>
        <time>2022-07-17T06:08:05Z</time>
      </trkpt>
      <trkpt lat="45.96531" lon="6.78729">
        <ele>1793</ele>
        <time>2022-07-17T06:08:14Z</time>
      </trkpt>
      <trkpt lat="45.96524" lon="6.78724">
        <ele>1796</ele>
        <time>2022-07-17T06:08:30Z</time>
      </trkpt>
      <trkpt lat="45.9652" lon="6.78715">
        <ele>1796</ele>
        <time>2022-07-17T06:08:40Z</time>
      </trkpt>
      <trkpt lat="45.96517" lon="6.7871">
        <ele>1795</ele>
        <time>2022-07-17T06:08:51Z</time>
      </trkpt>
      <trkpt lat="45.96514" lon="6.78702">
        <ele>1793</ele>
        <time>2022-07-17T06:09:00Z</time>
      </trkpt>
      <trkpt lat="45.96513" lon="6.78695">
        <ele>1791</ele>
        <time>2022-07-17T06:09:08Z</time>
      </trkpt>
      <trkpt lat="45.9651" lon="6.7869">
        <ele>1790</ele>
        <time>2022-07-17T06:09:13Z</time>
      </trkpt>
      <trkpt lat="45.9651" lon="6.78684">
        <ele>1789</ele>
        <time>2022-07-17T06:09:18Z</time>
      </trkpt>
      <trkpt lat="45.96505" lon="6.7867">
        <ele>1785</ele>
        <time>2022-07-17T06:09:33Z</time>
      </trkpt>
      <trkpt lat="45.96503" lon="6.78662">
        <ele>1783</ele>
        <time>2022-07-17T06:09:41Z</time>
      </trkpt>
      <trkpt lat="45.96498" lon="6.78647">
        <ele>1780</ele>
        <time>2022-07-17T06:09:57Z</time>
      </trkpt>
      <trkpt lat="45.96499" lon="6.78641">
        <ele>1778</ele>
        <time>2022-07-17T06:10:02Z</time>
      </trkpt>
      <trkpt lat="45.96499" lon="6.78635">
        <ele>1777</ele>
        <time>2022-07-17T06:10:07Z</time>
      </trkpt>
      <trkpt lat="45.96492" lon="6.78625">
        <ele>1774</ele>
        <time>2022-07-17T06:10:22Z</time>
      </trkpt>
      <trkpt lat="45.9649" lon="6.78619">
        <ele>1770</ele>
        <time>2022-07-17T06:10:47Z</time>
      </trkpt>
      <trkpt lat="45.96484" lon="6.78618">
        <ele>1768</ele>
        <time>2022-07-17T06:10:57Z</time>
      </trkpt>
      <trkpt lat="45.96476" lon="6.78615">
        <ele>1765</ele>
        <time>2022-07-17T06:11:06Z</time>
      </trkpt>
      <trkpt lat="45.96472" lon="6.78613">
        <ele>1765</ele>
        <time>2022-07-17T06:11:10Z</time>
      </trkpt>
      <trkpt lat="45.96468" lon="6.78609">
        <ele>1765</ele>
        <time>2022-07-17T06:11:13Z</time>
      </trkpt>
      <trkpt lat="45.96463" lon="6.78607">
        <ele>1765</ele>
        <time>2022-07-17T06:11:21Z</time>
      </trkpt>
      <trkpt lat="45.96459" lon="6.786">
        <ele>1764</ele>
        <time>2022-07-17T06:11:32Z</time>
      </trkpt>
      <trkpt lat="45.96453" lon="6.78596">
        <ele>1761</ele>
        <time>2022-07-17T06:11:42Z</time>
      </trkpt>
      <trkpt lat="45.96449" lon="6.78594">
        <ele>1760</ele>
        <time>2022-07-17T06:11:46Z</time>
      </trkpt>
      <trkpt lat="45.96444" lon="6.78592">
        <ele>1760</ele>
        <time>2022-07-17T06:11:54Z</time>
      </trkpt>
      <trkpt lat="45.96441" lon="6.78588">
        <ele>1759</ele>
        <time>2022-07-17T06:12:09Z</time>
      </trkpt>
      <trkpt lat="45.96436" lon="6.78588">
        <ele>1758</ele>
        <time>2022-07-17T06:12:14Z</time>
      </trkpt>
      <trkpt lat="45.96434" lon="6.78582">
        <ele>1756</ele>
        <time>2022-07-17T06:12:19Z</time>
      </trkpt>
      <trkpt lat="45.96428" lon="6.78581">
        <ele>1754</ele>
        <time>2022-07-17T06:12:27Z</time>
      </trkpt>
      <trkpt lat="45.96423" lon="6.78586">
        <ele>1752</ele>
        <time>2022-07-17T06:12:37Z</time>
      </trkpt>
      <trkpt lat="45.96418" lon="6.78584">
        <ele>1750</ele>
        <time>2022-07-17T06:12:49Z</time>
      </trkpt>
      <trkpt lat="45.96415" lon="6.78571">
        <ele>1747</ele>
        <time>2022-07-17T06:13:09Z</time>
      </trkpt>
      <trkpt lat="45.96411" lon="6.78564">
        <ele>1745</ele>
        <time>2022-07-17T06:13:25Z</time>
      </trkpt>
      <trkpt lat="45.96406" lon="6.78551">
        <ele>1740</ele>
        <time>2022-07-17T06:13:48Z</time>
      </trkpt>
      <trkpt lat="45.964" lon="6.7855">
        <ele>1739</ele>
        <time>2022-07-17T06:13:53Z</time>
      </trkpt>
      <trkpt lat="45.96397" lon="6.78544">
        <ele>1738</ele>
        <time>2022-07-17T06:13:59Z</time>
      </trkpt>
      <trkpt lat="45.96393" lon="6.78539">
        <ele>1738</ele>
        <time>2022-07-17T06:14:06Z</time>
      </trkpt>
      <trkpt lat="45.96391" lon="6.78532">
        <ele>1738</ele>
        <time>2022-07-17T06:14:11Z</time>
      </trkpt>
      <trkpt lat="45.96385" lon="6.78516">
        <ele>1735</ele>
        <time>2022-07-17T06:14:28Z</time>
      </trkpt>
      <trkpt lat="45.96381" lon="6.78512">
        <ele>1734</ele>
        <time>2022-07-17T06:14:32Z</time>
      </trkpt>
      <trkpt lat="45.96374" lon="6.78502">
        <ele>1733</ele>
        <time>2022-07-17T06:14:42Z</time>
      </trkpt>
      <trkpt lat="45.96367" lon="6.78489">
        <ele>1731</ele>
        <time>2022-07-17T06:14:56Z</time>
      </trkpt>
      <trkpt lat="45.96363" lon="6.7848">
        <ele>1729</ele>
        <time>2022-07-17T06:15:05Z</time>
      </trkpt>
      <trkpt lat="45.96356" lon="6.7847">
        <ele>1727</ele>
        <time>2022-07-17T06:15:21Z</time>
      </trkpt>
      <trkpt lat="45.9636" lon="6.78462">
        <ele>1725</ele>
        <time>2022-07-17T06:15:33Z</time>
      </trkpt>
      <trkpt lat="45.96353" lon="6.78453">
        <ele>1721</ele>
        <time>2022-07-17T06:15:49Z</time>
      </trkpt>
      <trkpt lat="45.96358" lon="6.78449">
        <ele>1719</ele>
        <time>2022-07-17T06:15:59Z</time>
      </trkpt>
      <trkpt lat="45.96353" lon="6.78446">
        <ele>1718</ele>
        <time>2022-07-17T06:16:04Z</time>
      </trkpt>
      <trkpt lat="45.96348" lon="6.78431">
        <ele>1712</ele>
        <time>2022-07-17T06:16:32Z</time>
      </trkpt>
      <trkpt lat="45.96344" lon="6.78425">
        <ele>1708</ele>
        <time>2022-07-17T06:16:47Z</time>
      </trkpt>
      <trkpt lat="45.96339" lon="6.7842">
        <ele>1706</ele>
        <time>2022-07-17T06:16:57Z</time>
      </trkpt>
      <trkpt lat="45.96338" lon="6.78414">
        <ele>1703</ele>
        <time>2022-07-17T06:17:07Z</time>
      </trkpt>
      <trkpt lat="45.96322" lon="6.78386">
        <ele>1697</ele>
        <time>2022-07-17T06:17:37Z</time>
      </trkpt>
      <trkpt lat="45.96317" lon="6.78378">
        <ele>1695</ele>
        <time>2022-07-17T06:17:49Z</time>
      </trkpt>
      <trkpt lat="45.96313" lon="6.78373">
        <ele>1693</ele>
        <time>2022-07-17T06:18:06Z</time>
      </trkpt>
      <trkpt lat="45.96311" lon="6.78367">
        <ele>1691</ele>
        <time>2022-07-17T06:18:16Z</time>
      </trkpt>
      <trkpt lat="45.96306" lon="6.78367">
        <ele>1689</ele>
        <time>2022-07-17T06:18:21Z</time>
      </trkpt>
      <trkpt lat="45.963" lon="6.78366">
        <ele>1688</ele>
        <time>2022-07-17T06:18:29Z</time>
      </trkpt>
      <trkpt lat="45.96296" lon="6.78363">
        <ele>1687</ele>
        <time>2022-07-17T06:18:33Z</time>
      </trkpt>
      <trkpt lat="45.96291" lon="6.78361">
        <ele>1686</ele>
        <time>2022-07-17T06:18:37Z</time>
      </trkpt>
      <trkpt lat="45.96287" lon="6.78355">
        <ele>1685</ele>
        <time>2022-07-17T06:18:44Z</time>
      </trkpt>
      <trkpt lat="45.9628" lon="6.78358">
        <ele>1682</ele>
        <time>2022-07-17T06:19:01Z</time>
      </trkpt>
      <trkpt lat="45.96276" lon="6.78354">
        <ele>1681</ele>
        <time>2022-07-17T06:19:05Z</time>
      </trkpt>
      <trkpt lat="45.96272" lon="6.78354">
        <ele>1680</ele>
        <time>2022-07-17T06:19:09Z</time>
      </trkpt>
      <trkpt lat="45.96263" lon="6.78348">
        <ele>1680</ele>
        <time>2022-07-17T06:19:17Z</time>
      </trkpt>
      <trkpt lat="45.96259" lon="6.78344">
        <ele>1681</ele>
        <time>2022-07-17T06:19:21Z</time>
      </trkpt>
      <trkpt lat="45.96255" lon="6.7834">
        <ele>1680</ele>
        <time>2022-07-17T06:19:25Z</time>
      </trkpt>
      <trkpt lat="45.96252" lon="6.78336">
        <ele>1680</ele>
        <time>2022-07-17T06:19:28Z</time>
      </trkpt>
      <trkpt lat="45.96248" lon="6.78335">
        <ele>1679</ele>
        <time>2022-07-17T06:19:35Z</time>
      </trkpt>
      <trkpt lat="45.96245" lon="6.7833">
        <ele>1678</ele>
        <time>2022-07-17T06:19:39Z</time>
      </trkpt>
      <trkpt lat="45.96241" lon="6.78334">
        <ele>1677</ele>
        <time>2022-07-17T06:19:43Z</time>
      </trkpt>
      <trkpt lat="45.96237" lon="6.78328">
        <ele>1678</ele>
        <time>2022-07-17T06:19:50Z</time>
      </trkpt>
      <trkpt lat="45.96228" lon="6.78317">
        <ele>1676</ele>
        <time>2022-07-17T06:20:04Z</time>
      </trkpt>
      <trkpt lat="45.96219" lon="6.78312">
        <ele>1675</ele>
        <time>2022-07-17T06:20:12Z</time>
      </trkpt>
      <trkpt lat="45.96213" lon="6.78309">
        <ele>1676</ele>
        <time>2022-07-17T06:20:19Z</time>
      </trkpt>
      <trkpt lat="45.96199" lon="6.78306">
        <ele>1674</ele>
        <time>2022-07-17T06:20:37Z</time>
      </trkpt>
      <trkpt lat="45.96194" lon="6.78305">
        <ele>1673</ele>
        <time>2022-07-17T06:20:42Z</time>
      </trkpt>
      <trkpt lat="45.9619" lon="6.783">
        <ele>1671</ele>
        <time>2022-07-17T06:20:49Z</time>
      </trkpt>
      <trkpt lat="45.96184" lon="6.78302">
        <ele>1670</ele>
        <time>2022-07-17T06:20:56Z</time>
      </trkpt>
      <trkpt lat="45.96181" lon="6.78297">
        <ele>1669</ele>
        <time>2022-07-17T06:21:01Z</time>
      </trkpt>
      <trkpt lat="45.96171" lon="6.78289">
        <ele>1667</ele>
        <time>2022-07-17T06:21:20Z</time>
      </trkpt>
      <trkpt lat="45.96161" lon="6.78283">
        <ele>1667</ele>
        <time>2022-07-17T06:21:32Z</time>
      </trkpt>
      <trkpt lat="45.96157" lon="6.7828">
        <ele>1666</ele>
        <time>2022-07-17T06:21:44Z</time>
      </trkpt>
      <trkpt lat="45.96153" lon="6.78278">
        <ele>1663</ele>
        <time>2022-07-17T06:21:55Z</time>
      </trkpt>
      <trkpt lat="45.9615" lon="6.78271">
        <ele>1659</ele>
        <time>2022-07-17T06:22:11Z</time>
      </trkpt>
      <trkpt lat="45.96151" lon="6.78264">
        <ele>1654</ele>
        <time>2022-07-17T06:22:31Z</time>
      </trkpt>
      <trkpt lat="45.9615" lon="6.78257">
        <ele>1651</ele>
        <time>2022-07-17T06:22:41Z</time>
      </trkpt>
      <trkpt lat="45.96153" lon="6.78248">
        <ele>1649</ele>
        <time>2022-07-17T06:22:51Z</time>
      </trkpt>
      <trkpt lat="45.96145" lon="6.78247">
        <ele>1646</ele>
        <time>2022-07-17T06:23:05Z</time>
      </trkpt>
      <trkpt lat="45.9614" lon="6.7825">
        <ele>1645</ele>
        <time>2022-07-17T06:23:10Z</time>
      </trkpt>
      <trkpt lat="45.96137" lon="6.78255">
        <ele>1642</ele>
        <time>2022-07-17T06:23:27Z</time>
      </trkpt>
      <trkpt lat="45.96132" lon="6.78254">
        <ele>1639</ele>
        <time>2022-07-17T06:23:42Z</time>
      </trkpt>
      <trkpt lat="45.96133" lon="6.78245">
        <ele>1635</ele>
        <time>2022-07-17T06:23:59Z</time>
      </trkpt>
      <trkpt lat="45.96128" lon="6.78244">
        <ele>1633</ele>
        <time>2022-07-17T06:24:05Z</time>
      </trkpt>
      <trkpt lat="45.96123" lon="6.78241">
        <ele>1630</ele>
        <time>2022-07-17T06:24:16Z</time>
      </trkpt>
      <trkpt lat="45.96128" lon="6.78237">
        <ele>1628</ele>
        <time>2022-07-17T06:24:26Z</time>
      </trkpt>
      <trkpt lat="45.9613" lon="6.78229">
        <ele>1625</ele>
        <time>2022-07-17T06:24:38Z</time>
      </trkpt>
      <trkpt lat="45.96125" lon="6.78227">
        <ele>1623</ele>
        <time>2022-07-17T06:24:48Z</time>
      </trkpt>
      <trkpt lat="45.96124" lon="6.78211">
        <ele>1615</ele>
        <time>2022-07-17T06:25:23Z</time>
      </trkpt>
      <trkpt lat="45.96125" lon="6.78203">
        <ele>1612</ele>
        <time>2022-07-17T06:25:34Z</time>
      </trkpt>
      <trkpt lat="45.96122" lon="6.78198">
        <ele>1610</ele>
        <time>2022-07-17T06:25:44Z</time>
      </trkpt>
      <trkpt lat="45.96122" lon="6.7819">
        <ele>1606</ele>
        <time>2022-07-17T06:26:02Z</time>
      </trkpt>
      <trkpt lat="45.96121" lon="6.78183">
        <ele>1603</ele>
        <time>2022-07-17T06:26:20Z</time>
      </trkpt>
      <trkpt lat="45.96114" lon="6.78188">
        <ele>1601</ele>
        <time>2022-07-17T06:26:30Z</time>
      </trkpt>
      <trkpt lat="45.9611" lon="6.78188">
        <ele>1598</ele>
        <time>2022-07-17T06:26:40Z</time>
      </trkpt>
      <trkpt lat="45.9611" lon="6.78182">
        <ele>1596</ele>
        <time>2022-07-17T06:26:50Z</time>
      </trkpt>
      <trkpt lat="45.96112" lon="6.78175">
        <ele>1593</ele>
        <time>2022-07-17T06:27:07Z</time>
      </trkpt>
      <trkpt lat="45.9611" lon="6.78169">
        <ele>1590</ele>
        <time>2022-07-17T06:27:22Z</time>
      </trkpt>
      <trkpt lat="45.96111" lon="6.78162">
        <ele>1587</ele>
        <time>2022-07-17T06:27:32Z</time>
      </trkpt>
      <trkpt lat="45.96104" lon="6.78161">
        <ele>1585</ele>
        <time>2022-07-17T06:27:42Z</time>
      </trkpt>
      <trkpt lat="45.961" lon="6.78157">
        <ele>1583</ele>
        <time>2022-07-17T06:27:52Z</time>
      </trkpt>
      <trkpt lat="45.96097" lon="6.78149">
        <ele>1581</ele>
        <time>2022-07-17T06:28:03Z</time>
      </trkpt>
      <trkpt lat="45.96097" lon="6.78143">
        <ele>1578</ele>
        <time>2022-07-17T06:28:15Z</time>
      </trkpt>
      <trkpt lat="45.96102" lon="6.78138">
        <ele>1575</ele>
        <time>2022-07-17T06:28:24Z</time>
      </trkpt>
      <trkpt lat="45.96106" lon="6.78136">
        <ele>1575</ele>
        <time>2022-07-17T06:28:28Z</time>
      </trkpt>
      <trkpt lat="45.96106" lon="6.78119">
        <ele>1570</ele>
        <time>2022-07-17T06:28:52Z</time>
      </trkpt>
      <trkpt lat="45.96094" lon="6.78103">
        <ele>1567</ele>
        <time>2022-07-17T06:29:10Z</time>
      </trkpt>
      <trkpt lat="45.96092" lon="6.78093">
        <ele>1566</ele>
        <time>2022-07-17T06:29:17Z</time>
      </trkpt>
      <trkpt lat="45.96089" lon="6.78088">
        <ele>1566</ele>
        <time>2022-07-17T06:29:21Z</time>
      </trkpt>
      <trkpt lat="45.9609" lon="6.78079">
        <ele>1565</ele>
        <time>2022-07-17T06:29:29Z</time>
      </trkpt>
      <trkpt lat="45.96091" lon="6.78069">
        <ele>1563</ele>
        <time>2022-07-17T06:29:39Z</time>
      </trkpt>
      <trkpt lat="45.96088" lon="6.78064">
        <ele>1563</ele>
        <time>2022-07-17T06:29:50Z</time>
      </trkpt>
      <trkpt lat="45.96091" lon="6.78058">
        <ele>1560</ele>
        <time>2022-07-17T06:30:11Z</time>
      </trkpt>
      <trkpt lat="45.96093" lon="6.78051">
        <ele>1559</ele>
        <time>2022-07-17T06:30:16Z</time>
      </trkpt>
      <trkpt lat="45.96089" lon="6.78044">
        <ele>1559</ele>
        <time>2022-07-17T06:30:28Z</time>
      </trkpt>
      <trkpt lat="45.96087" lon="6.78038">
        <ele>1559</ele>
        <time>2022-07-17T06:30:33Z</time>
      </trkpt>
      <trkpt lat="45.96087" lon="6.78027">
        <ele>1562</ele>
        <time>2022-07-17T06:30:49Z</time>
      </trkpt>
      <trkpt lat="45.96083" lon="6.78025">
        <ele>1563</ele>
        <time>2022-07-17T06:32:44Z</time>
      </trkpt>
      <trkpt lat="45.96086" lon="6.78018">
        <ele>1563</ele>
        <time>2022-07-17T06:32:53Z</time>
      </trkpt>
      <trkpt lat="45.96089" lon="6.78011">
        <ele>1563</ele>
        <time>2022-07-17T06:32:58Z</time>
      </trkpt>
      <trkpt lat="45.96089" lon="6.78005">
        <ele>1564</ele>
        <time>2022-07-17T06:33:03Z</time>
      </trkpt>
      <trkpt lat="45.96086" lon="6.78001">
        <ele>1565</ele>
        <time>2022-07-17T06:33:08Z</time>
      </trkpt>
      <trkpt lat="45.96088" lon="6.77995">
        <ele>1566</ele>
        <time>2022-07-17T06:33:13Z</time>
      </trkpt>
      <trkpt lat="45.96091" lon="6.77988">
        <ele>1566</ele>
        <time>2022-07-17T06:33:17Z</time>
      </trkpt>
      <trkpt lat="45.9609" lon="6.77982">
        <ele>1566</ele>
        <time>2022-07-17T06:33:21Z</time>
      </trkpt>
      <trkpt lat="45.96086" lon="6.77968">
        <ele>1564</ele>
        <time>2022-07-17T06:33:36Z</time>
      </trkpt>
      <trkpt lat="45.96082" lon="6.77965">
        <ele>1565</ele>
        <time>2022-07-17T06:33:40Z</time>
      </trkpt>
      <trkpt lat="45.9608" lon="6.77958">
        <ele>1565</ele>
        <time>2022-07-17T06:33:44Z</time>
      </trkpt>
      <trkpt lat="45.96074" lon="6.77946">
        <ele>1565</ele>
        <time>2022-07-17T06:33:52Z</time>
      </trkpt>
      <trkpt lat="45.96069" lon="6.77943">
        <ele>1565</ele>
        <time>2022-07-17T06:33:57Z</time>
      </trkpt>
      <trkpt lat="45.96057" lon="6.77932">
        <ele>1566</ele>
        <time>2022-07-17T06:34:08Z</time>
      </trkpt>
      <trkpt lat="45.96053" lon="6.77926">
        <ele>1566</ele>
        <time>2022-07-17T06:34:12Z</time>
      </trkpt>
      <trkpt lat="45.96044" lon="6.7792">
        <ele>1567</ele>
        <time>2022-07-17T06:34:20Z</time>
      </trkpt>
      <trkpt lat="45.9603" lon="6.77915">
        <ele>1568</ele>
        <time>2022-07-17T06:34:33Z</time>
      </trkpt>
      <trkpt lat="45.96026" lon="6.77912">
        <ele>1569</ele>
        <time>2022-07-17T06:34:36Z</time>
      </trkpt>
      <trkpt lat="45.96017" lon="6.77898">
        <ele>1569</ele>
        <time>2022-07-17T06:34:48Z</time>
      </trkpt>
      <trkpt lat="45.96009" lon="6.77891">
        <ele>1569</ele>
        <time>2022-07-17T06:34:56Z</time>
      </trkpt>
      <trkpt lat="45.9599" lon="6.77883">
        <ele>1573</ele>
        <time>2022-07-17T06:35:19Z</time>
      </trkpt>
      <trkpt lat="45.95985" lon="6.77886">
        <ele>1574</ele>
        <time>2022-07-17T06:35:23Z</time>
      </trkpt>
      <trkpt lat="45.95981" lon="6.77884">
        <ele>1574</ele>
        <time>2022-07-17T06:35:27Z</time>
      </trkpt>
      <trkpt lat="45.95977" lon="6.7788">
        <ele>1573</ele>
        <time>2022-07-17T06:35:32Z</time>
      </trkpt>
      <trkpt lat="45.95976" lon="6.77881">
        <ele>1571</ele>
        <time>2022-07-17T06:36:23Z</time>
      </trkpt>
      <trkpt lat="45.95971" lon="6.77882">
        <ele>1571</ele>
        <time>2022-07-17T06:37:14Z</time>
      </trkpt>
      <trkpt lat="45.95967" lon="6.7788">
        <ele>1570</ele>
        <time>2022-07-17T06:37:24Z</time>
      </trkpt>
      <trkpt lat="45.95962" lon="6.77876">
        <ele>1570</ele>
        <time>2022-07-17T06:38:04Z</time>
      </trkpt>
      <trkpt lat="45.95939" lon="6.77871">
        <ele>1569</ele>
        <time>2022-07-17T06:38:35Z</time>
      </trkpt>
      <trkpt lat="45.95921" lon="6.7787">
        <ele>1569</ele>
        <time>2022-07-17T06:38:55Z</time>
      </trkpt>
      <trkpt lat="45.95917" lon="6.77868">
        <ele>1569</ele>
        <time>2022-07-17T06:38:58Z</time>
      </trkpt>
      <trkpt lat="45.95912" lon="6.77868">
        <ele>1568</ele>
        <time>2022-07-17T06:39:02Z</time>
      </trkpt>
      <trkpt lat="45.95908" lon="6.77866">
        <ele>1568</ele>
        <time>2022-07-17T06:39:06Z</time>
      </trkpt>
      <trkpt lat="45.95904" lon="6.77863">
        <ele>1567</ele>
        <time>2022-07-17T06:39:09Z</time>
      </trkpt>
      <trkpt lat="45.95894" lon="6.77859">
        <ele>1566</ele>
        <time>2022-07-17T06:39:16Z</time>
      </trkpt>
      <trkpt lat="45.95891" lon="6.77856">
        <ele>1566</ele>
        <time>2022-07-17T06:39:20Z</time>
      </trkpt>
      <trkpt lat="45.95889" lon="6.7785">
        <ele>1565</ele>
        <time>2022-07-17T06:39:24Z</time>
      </trkpt>
      <trkpt lat="45.9589" lon="6.77842">
        <ele>1564</ele>
        <time>2022-07-17T06:39:28Z</time>
      </trkpt>
      <trkpt lat="45.95897" lon="6.77823">
        <ele>1560</ele>
        <time>2022-07-17T06:39:41Z</time>
      </trkpt>
      <trkpt lat="45.95899" lon="6.77817">
        <ele>1559</ele>
        <time>2022-07-17T06:39:45Z</time>
      </trkpt>
      <trkpt lat="45.95899" lon="6.7781">
        <ele>1558</ele>
        <time>2022-07-17T06:39:49Z</time>
      </trkpt>
      <trkpt lat="45.95895" lon="6.77805">
        <ele>1557</ele>
        <time>2022-07-17T06:39:52Z</time>
      </trkpt>
      <trkpt lat="45.95891" lon="6.77802">
        <ele>1557</ele>
        <time>2022-07-17T06:39:56Z</time>
      </trkpt>
      <trkpt lat="45.95882" lon="6.77798">
        <ele>1556</ele>
        <time>2022-07-17T06:40:03Z</time>
      </trkpt>
      <trkpt lat="45.95879" lon="6.77793">
        <ele>1555</ele>
        <time>2022-07-17T06:40:06Z</time>
      </trkpt>
      <trkpt lat="45.95871" lon="6.77776">
        <ele>1554</ele>
        <time>2022-07-17T06:40:15Z</time>
      </trkpt>
      <trkpt lat="45.9586" lon="6.77764">
        <ele>1552</ele>
        <time>2022-07-17T06:40:25Z</time>
      </trkpt>
      <trkpt lat="45.95857" lon="6.77757">
        <ele>1552</ele>
        <time>2022-07-17T06:40:29Z</time>
      </trkpt>
      <trkpt lat="45.95856" lon="6.77744">
        <ele>1551</ele>
        <time>2022-07-17T06:40:36Z</time>
      </trkpt>
      <trkpt lat="45.95856" lon="6.77737">
        <ele>1550</ele>
        <time>2022-07-17T06:40:40Z</time>
      </trkpt>
      <trkpt lat="45.95858" lon="6.7773">
        <ele>1549</ele>
        <time>2022-07-17T06:40:44Z</time>
      </trkpt>
      <trkpt lat="45.95855" lon="6.77725">
        <ele>1548</ele>
        <time>2022-07-17T06:40:48Z</time>
      </trkpt>
      <trkpt lat="45.95848" lon="6.77721">
        <ele>1546</ele>
        <time>2022-07-17T06:40:55Z</time>
      </trkpt>
      <trkpt lat="45.95843" lon="6.77719">
        <ele>1543</ele>
        <time>2022-07-17T06:41:00Z</time>
      </trkpt>
      <trkpt lat="45.95839" lon="6.77704">
        <ele>1539</ele>
        <time>2022-07-17T06:41:13Z</time>
      </trkpt>
      <trkpt lat="45.95832" lon="6.77698">
        <ele>1536</ele>
        <time>2022-07-17T06:41:20Z</time>
      </trkpt>
      <trkpt lat="45.95828" lon="6.77694">
        <ele>1535</ele>
        <time>2022-07-17T06:41:24Z</time>
      </trkpt>
      <trkpt lat="45.95822" lon="6.77697">
        <ele>1533</ele>
        <time>2022-07-17T06:41:31Z</time>
      </trkpt>
      <trkpt lat="45.95821" lon="6.77691">
        <ele>1531</ele>
        <time>2022-07-17T06:41:40Z</time>
      </trkpt>
      <trkpt lat="45.9582" lon="6.77693">
        <ele>1532</ele>
        <time>2022-07-17T06:43:03Z</time>
      </trkpt>
      <trkpt lat="45.95814" lon="6.77696">
        <ele>1531</ele>
        <time>2022-07-17T06:43:23Z</time>
      </trkpt>
      <trkpt lat="45.95808" lon="6.77692">
        <ele>1530</ele>
        <time>2022-07-17T06:43:33Z</time>
      </trkpt>
      <trkpt lat="45.95804" lon="6.77687">
        <ele>1529</ele>
        <time>2022-07-17T06:43:38Z</time>
      </trkpt>
      <trkpt lat="45.95802" lon="6.77681">
        <ele>1528</ele>
        <time>2022-07-17T06:43:45Z</time>
      </trkpt>
      <trkpt lat="45.95801" lon="6.7767">
        <ele>1527</ele>
        <time>2022-07-17T06:43:55Z</time>
      </trkpt>
      <trkpt lat="45.95805" lon="6.77658">
        <ele>1525</ele>
        <time>2022-07-17T06:44:07Z</time>
      </trkpt>
      <trkpt lat="45.95803" lon="6.77652">
        <ele>1524</ele>
        <time>2022-07-17T06:44:15Z</time>
      </trkpt>
      <trkpt lat="45.95793" lon="6.77647">
        <ele>1522</ele>
        <time>2022-07-17T06:44:25Z</time>
      </trkpt>
      <trkpt lat="45.95787" lon="6.77641">
        <ele>1520</ele>
        <time>2022-07-17T06:44:35Z</time>
      </trkpt>
      <trkpt lat="45.95782" lon="6.77621">
        <ele>1517</ele>
        <time>2022-07-17T06:44:52Z</time>
      </trkpt>
      <trkpt lat="45.95783" lon="6.77608">
        <ele>1516</ele>
        <time>2022-07-17T06:45:00Z</time>
      </trkpt>
      <trkpt lat="45.95791" lon="6.77589">
        <ele>1515</ele>
        <time>2022-07-17T06:45:15Z</time>
      </trkpt>
      <trkpt lat="45.95795" lon="6.77572">
        <ele>1514</ele>
        <time>2022-07-17T06:45:24Z</time>
      </trkpt>
      <trkpt lat="45.95794" lon="6.77557">
        <ele>1514</ele>
        <time>2022-07-17T06:45:34Z</time>
      </trkpt>
      <trkpt lat="45.95793" lon="6.7755">
        <ele>1514</ele>
        <time>2022-07-17T06:45:38Z</time>
      </trkpt>
      <trkpt lat="45.95793" lon="6.7754">
        <ele>1513</ele>
        <time>2022-07-17T06:45:45Z</time>
      </trkpt>
      <trkpt lat="45.95794" lon="6.77534">
        <ele>1513</ele>
        <time>2022-07-17T06:45:49Z</time>
      </trkpt>
      <trkpt lat="45.95795" lon="6.7752">
        <ele>1512</ele>
        <time>2022-07-17T06:45:59Z</time>
      </trkpt>
      <trkpt lat="45.95791" lon="6.77509">
        <ele>1512</ele>
        <time>2022-07-17T06:46:06Z</time>
      </trkpt>
      <trkpt lat="45.9578" lon="6.77496">
        <ele>1510</ele>
        <time>2022-07-17T06:46:19Z</time>
      </trkpt>
      <trkpt lat="45.95775" lon="6.77482">
        <ele>1510</ele>
        <time>2022-07-17T06:46:28Z</time>
      </trkpt>
      <trkpt lat="45.95771" lon="6.77466">
        <ele>1509</ele>
        <time>2022-07-17T06:46:39Z</time>
      </trkpt>
      <trkpt lat="45.95756" lon="6.7744">
        <ele>1507</ele>
        <time>2022-07-17T06:47:00Z</time>
      </trkpt>
      <trkpt lat="45.95752" lon="6.77436">
        <ele>1507</ele>
        <time>2022-07-17T06:47:04Z</time>
      </trkpt>
      <trkpt lat="45.95743" lon="6.77431">
        <ele>1506</ele>
        <time>2022-07-17T06:47:12Z</time>
      </trkpt>
      <trkpt lat="45.95739" lon="6.77428">
        <ele>1507</ele>
        <time>2022-07-17T06:47:17Z</time>
      </trkpt>
      <trkpt lat="45.95728" lon="6.77416">
        <ele>1504</ele>
        <time>2022-07-17T06:47:32Z</time>
      </trkpt>
      <trkpt lat="45.95724" lon="6.77414">
        <ele>1503</ele>
        <time>2022-07-17T06:47:37Z</time>
      </trkpt>
      <trkpt lat="45.95711" lon="6.77414">
        <ele>1501</ele>
        <time>2022-07-17T06:47:49Z</time>
      </trkpt>
      <trkpt lat="45.95704" lon="6.7742">
        <ele>1500</ele>
        <time>2022-07-17T06:47:57Z</time>
      </trkpt>
      <trkpt lat="45.957" lon="6.77422">
        <ele>1499</ele>
        <time>2022-07-17T06:48:01Z</time>
      </trkpt>
      <trkpt lat="45.95694" lon="6.77425">
        <ele>1498</ele>
        <time>2022-07-17T06:48:09Z</time>
      </trkpt>
      <trkpt lat="45.95689" lon="6.77422">
        <ele>1497</ele>
        <time>2022-07-17T06:48:13Z</time>
      </trkpt>
      <trkpt lat="45.95671" lon="6.77405">
        <ele>1494</ele>
        <time>2022-07-17T06:48:34Z</time>
      </trkpt>
      <trkpt lat="45.95659" lon="6.77403">
        <ele>1492</ele>
        <time>2022-07-17T06:48:47Z</time>
      </trkpt>
      <trkpt lat="45.95648" lon="6.77396">
        <ele>1490</ele>
        <time>2022-07-17T06:49:00Z</time>
      </trkpt>
      <trkpt lat="45.95643" lon="6.77387">
        <ele>1488</ele>
        <time>2022-07-17T06:49:07Z</time>
      </trkpt>
      <trkpt lat="45.95642" lon="6.77362">
        <ele>1484</ele>
        <time>2022-07-17T06:49:27Z</time>
      </trkpt>
      <trkpt lat="45.95642" lon="6.77353">
        <ele>1483</ele>
        <time>2022-07-17T06:49:34Z</time>
      </trkpt>
      <trkpt lat="45.9564" lon="6.77337">
        <ele>1481</ele>
        <time>2022-07-17T06:49:45Z</time>
      </trkpt>
      <trkpt lat="45.95626" lon="6.77296">
        <ele>1476</ele>
        <time>2022-07-17T06:50:17Z</time>
      </trkpt>
      <trkpt lat="45.95623" lon="6.77273">
        <ele>1473</ele>
        <time>2022-07-17T06:50:31Z</time>
      </trkpt>
      <trkpt lat="45.95623" lon="6.77261">
        <ele>1472</ele>
        <time>2022-07-17T06:50:40Z</time>
      </trkpt>
      <trkpt lat="45.95622" lon="6.77254">
        <ele>1472</ele>
        <time>2022-07-17T06:50:44Z</time>
      </trkpt>
      <trkpt lat="45.95622" lon="6.77227">
        <ele>1471</ele>
        <time>2022-07-17T06:51:00Z</time>
      </trkpt>
      <trkpt lat="45.95621" lon="6.7722">
        <ele>1471</ele>
        <time>2022-07-17T06:51:04Z</time>
      </trkpt>
      <trkpt lat="45.95613" lon="6.77207">
        <ele>1469</ele>
        <time>2022-07-17T06:51:17Z</time>
      </trkpt>
      <trkpt lat="45.95611" lon="6.772">
        <ele>1469</ele>
        <time>2022-07-17T06:51:22Z</time>
      </trkpt>
      <trkpt lat="45.9561" lon="6.77191">
        <ele>1468</ele>
        <time>2022-07-17T06:51:29Z</time>
      </trkpt>
      <trkpt lat="45.95608" lon="6.77185">
        <ele>1468</ele>
        <time>2022-07-17T06:51:32Z</time>
      </trkpt>
      <trkpt lat="45.95606" lon="6.77177">
        <ele>1467</ele>
        <time>2022-07-17T06:51:39Z</time>
      </trkpt>
      <trkpt lat="45.95603" lon="6.77166">
        <ele>1467</ele>
        <time>2022-07-17T06:51:48Z</time>
      </trkpt>
      <trkpt lat="45.956" lon="6.77151">
        <ele>1465</ele>
        <time>2022-07-17T06:52:01Z</time>
      </trkpt>
      <trkpt lat="45.95595" lon="6.77148">
        <ele>1464</ele>
        <time>2022-07-17T06:52:05Z</time>
      </trkpt>
      <trkpt lat="45.95588" lon="6.77146">
        <ele>1463</ele>
        <time>2022-07-17T06:52:13Z</time>
      </trkpt>
      <trkpt lat="45.9558" lon="6.77136">
        <ele>1462</ele>
        <time>2022-07-17T06:52:25Z</time>
      </trkpt>
      <trkpt lat="45.9557" lon="6.77131">
        <ele>1461</ele>
        <time>2022-07-17T06:52:37Z</time>
      </trkpt>
      <trkpt lat="45.95565" lon="6.77125">
        <ele>1461</ele>
        <time>2022-07-17T06:52:43Z</time>
      </trkpt>
      <trkpt lat="45.95563" lon="6.77118">
        <ele>1460</ele>
        <time>2022-07-17T06:52:50Z</time>
      </trkpt>
      <trkpt lat="45.95553" lon="6.77104">
        <ele>1458</ele>
        <time>2022-07-17T06:53:13Z</time>
      </trkpt>
      <trkpt lat="45.95543" lon="6.77098">
        <ele>1456</ele>
        <time>2022-07-17T06:53:31Z</time>
      </trkpt>
      <trkpt lat="45.95537" lon="6.77088">
        <ele>1453</ele>
        <time>2022-07-17T06:53:46Z</time>
      </trkpt>
      <trkpt lat="45.95534" lon="6.77075">
        <ele>1452</ele>
        <time>2022-07-17T06:54:01Z</time>
      </trkpt>
      <trkpt lat="45.95531" lon="6.77068">
        <ele>1450</ele>
        <time>2022-07-17T06:54:11Z</time>
      </trkpt>
      <trkpt lat="45.95528" lon="6.77064">
        <ele>1449</ele>
        <time>2022-07-17T06:54:17Z</time>
      </trkpt>
      <trkpt lat="45.95522" lon="6.77055">
        <ele>1447</ele>
        <time>2022-07-17T06:54:26Z</time>
      </trkpt>
      <trkpt lat="45.95519" lon="6.77041">
        <ele>1445</ele>
        <time>2022-07-17T06:54:34Z</time>
      </trkpt>
      <trkpt lat="45.95516" lon="6.77036">
        <ele>1445</ele>
        <time>2022-07-17T06:54:37Z</time>
      </trkpt>
      <trkpt lat="45.95502" lon="6.77026">
        <ele>1442</ele>
        <time>2022-07-17T06:54:48Z</time>
      </trkpt>
      <trkpt lat="45.95491" lon="6.77025">
        <ele>1441</ele>
        <time>2022-07-17T06:54:55Z</time>
      </trkpt>
      <trkpt lat="45.95478" lon="6.77018">
        <ele>1439</ele>
        <time>2022-07-17T06:55:03Z</time>
      </trkpt>
      <trkpt lat="45.95472" lon="6.77014">
        <ele>1438</ele>
        <time>2022-07-17T06:55:11Z</time>
      </trkpt>
      <trkpt lat="45.95457" lon="6.77014">
        <ele>1435</ele>
        <time>2022-07-17T06:55:23Z</time>
      </trkpt>
      <trkpt lat="45.95453" lon="6.77011">
        <ele>1434</ele>
        <time>2022-07-17T06:55:26Z</time>
      </trkpt>
      <trkpt lat="45.95439" lon="6.77012">
        <ele>1433</ele>
        <time>2022-07-17T06:55:35Z</time>
      </trkpt>
      <trkpt lat="45.95435" lon="6.77014">
        <ele>1432</ele>
        <time>2022-07-17T06:55:40Z</time>
      </trkpt>
      <trkpt lat="45.95431" lon="6.77011">
        <ele>1432</ele>
        <time>2022-07-17T06:55:44Z</time>
      </trkpt>
      <trkpt lat="45.95427" lon="6.77006">
        <ele>1432</ele>
        <time>2022-07-17T06:55:47Z</time>
      </trkpt>
      <trkpt lat="45.95417" lon="6.77001">
        <ele>1431</ele>
        <time>2022-07-17T06:55:57Z</time>
      </trkpt>
      <trkpt lat="45.95401" lon="6.77">
        <ele>1428</ele>
        <time>2022-07-17T06:56:11Z</time>
      </trkpt>
      <trkpt lat="45.95396" lon="6.77001">
        <ele>1427</ele>
        <time>2022-07-17T06:56:16Z</time>
      </trkpt>
      <trkpt lat="45.95394" lon="6.76993">
        <ele>1426</ele>
        <time>2022-07-17T06:56:21Z</time>
      </trkpt>
      <trkpt lat="45.95395" lon="6.76985">
        <ele>1424</ele>
        <time>2022-07-17T06:56:28Z</time>
      </trkpt>
      <trkpt lat="45.95393" lon="6.76977">
        <ele>1423</ele>
        <time>2022-07-17T06:56:34Z</time>
      </trkpt>
      <trkpt lat="45.95388" lon="6.76966">
        <ele>1422</ele>
        <time>2022-07-17T06:56:42Z</time>
      </trkpt>
      <trkpt lat="45.95386" lon="6.76959">
        <ele>1422</ele>
        <time>2022-07-17T06:56:46Z</time>
      </trkpt>
      <trkpt lat="45.95385" lon="6.76953">
        <ele>1421</ele>
        <time>2022-07-17T06:56:50Z</time>
      </trkpt>
      <trkpt lat="45.95384" lon="6.76946">
        <ele>1421</ele>
        <time>2022-07-17T06:56:55Z</time>
      </trkpt>
      <trkpt lat="45.95379" lon="6.76941">
        <ele>1421</ele>
        <time>2022-07-17T06:56:59Z</time>
      </trkpt>
      <trkpt lat="45.95377" lon="6.76935">
        <ele>1421</ele>
        <time>2022-07-17T06:57:03Z</time>
      </trkpt>
      <trkpt lat="45.95376" lon="6.76927">
        <ele>1421</ele>
        <time>2022-07-17T06:57:07Z</time>
      </trkpt>
      <trkpt lat="45.95376" lon="6.76912">
        <ele>1421</ele>
        <time>2022-07-17T06:57:15Z</time>
      </trkpt>
      <trkpt lat="45.95374" lon="6.76907">
        <ele>1420</ele>
        <time>2022-07-17T06:57:19Z</time>
      </trkpt>
      <trkpt lat="45.95375" lon="6.76892">
        <ele>1419</ele>
        <time>2022-07-17T06:57:28Z</time>
      </trkpt>
      <trkpt lat="45.95371" lon="6.76879">
        <ele>1418</ele>
        <time>2022-07-17T06:57:37Z</time>
      </trkpt>
      <trkpt lat="45.95369" lon="6.76873">
        <ele>1417</ele>
        <time>2022-07-17T06:57:41Z</time>
      </trkpt>
      <trkpt lat="45.95364" lon="6.76864">
        <ele>1417</ele>
        <time>2022-07-17T06:57:48Z</time>
      </trkpt>
      <trkpt lat="45.95359" lon="6.76849">
        <ele>1416</ele>
        <time>2022-07-17T06:57:59Z</time>
      </trkpt>
      <trkpt lat="45.95358" lon="6.76826">
        <ele>1415</ele>
        <time>2022-07-17T06:58:12Z</time>
      </trkpt>
      <trkpt lat="45.95358" lon="6.76819">
        <ele>1415</ele>
        <time>2022-07-17T06:58:16Z</time>
      </trkpt>
      <trkpt lat="45.95354" lon="6.76815">
        <ele>1414</ele>
        <time>2022-07-17T06:58:20Z</time>
      </trkpt>
      <trkpt lat="45.95352" lon="6.76809">
        <ele>1414</ele>
        <time>2022-07-17T06:58:24Z</time>
      </trkpt>
      <trkpt lat="45.95348" lon="6.76796">
        <ele>1413</ele>
        <time>2022-07-17T06:58:32Z</time>
      </trkpt>
      <trkpt lat="45.95344" lon="6.7679">
        <ele>1412</ele>
        <time>2022-07-17T06:58:36Z</time>
      </trkpt>
      <trkpt lat="45.95341" lon="6.76787">
        <ele>1412</ele>
        <time>2022-07-17T06:58:39Z</time>
      </trkpt>
      <trkpt lat="45.9533" lon="6.76765">
        <ele>1411</ele>
        <time>2022-07-17T06:58:56Z</time>
      </trkpt>
      <trkpt lat="45.95319" lon="6.76729">
        <ele>1411</ele>
        <time>2022-07-17T06:59:19Z</time>
      </trkpt>
      <trkpt lat="45.95306" lon="6.76708">
        <ele>1411</ele>
        <time>2022-07-17T06:59:34Z</time>
      </trkpt>
      <trkpt lat="45.95302" lon="6.76704">
        <ele>1411</ele>
        <time>2022-07-17T06:59:38Z</time>
      </trkpt>
      <trkpt lat="45.95298" lon="6.76702">
        <ele>1411</ele>
        <time>2022-07-17T06:59:41Z</time>
      </trkpt>
      <trkpt lat="45.95289" lon="6.76694">
        <ele>1412</ele>
        <time>2022-07-17T06:59:49Z</time>
      </trkpt>
      <trkpt lat="45.95276" lon="6.76677">
        <ele>1412</ele>
        <time>2022-07-17T07:00:04Z</time>
      </trkpt>
      <trkpt lat="45.95271" lon="6.76667">
        <ele>1414</ele>
        <time>2022-07-17T07:00:15Z</time>
      </trkpt>
      <trkpt lat="45.95266" lon="6.76654">
        <ele>1414</ele>
        <time>2022-07-17T07:00:23Z</time>
      </trkpt>
      <trkpt lat="45.95263" lon="6.7665">
        <ele>1414</ele>
        <time>2022-07-17T07:00:27Z</time>
      </trkpt>
      <trkpt lat="45.95256" lon="6.76642">
        <ele>1415</ele>
        <time>2022-07-17T07:00:34Z</time>
      </trkpt>
      <trkpt lat="45.95247" lon="6.76617">
        <ele>1415</ele>
        <time>2022-07-17T07:00:50Z</time>
      </trkpt>
      <trkpt lat="45.95244" lon="6.76613">
        <ele>1415</ele>
        <time>2022-07-17T07:00:53Z</time>
      </trkpt>
      <trkpt lat="45.95242" lon="6.76607">
        <ele>1415</ele>
        <time>2022-07-17T07:00:56Z</time>
      </trkpt>
      <trkpt lat="45.95234" lon="6.76595">
        <ele>1415</ele>
        <time>2022-07-17T07:01:07Z</time>
      </trkpt>
      <trkpt lat="45.9523" lon="6.76592">
        <ele>1416</ele>
        <time>2022-07-17T07:01:11Z</time>
      </trkpt>
      <trkpt lat="45.9522" lon="6.76577">
        <ele>1417</ele>
        <time>2022-07-17T07:01:24Z</time>
      </trkpt>
      <trkpt lat="45.95211" lon="6.7656">
        <ele>1418</ele>
        <time>2022-07-17T07:01:37Z</time>
      </trkpt>
      <trkpt lat="45.9521" lon="6.76553">
        <ele>1419</ele>
        <time>2022-07-17T07:01:42Z</time>
      </trkpt>
      <trkpt lat="45.95202" lon="6.76537">
        <ele>1420</ele>
        <time>2022-07-17T07:01:54Z</time>
      </trkpt>
      <trkpt lat="45.95194" lon="6.76528">
        <ele>1420</ele>
        <time>2022-07-17T07:02:04Z</time>
      </trkpt>
      <trkpt lat="45.95192" lon="6.76521">
        <ele>1421</ele>
        <time>2022-07-17T07:02:08Z</time>
      </trkpt>
      <trkpt lat="45.95187" lon="6.76511">
        <ele>1421</ele>
        <time>2022-07-17T07:02:15Z</time>
      </trkpt>
      <trkpt lat="45.95185" lon="6.76501">
        <ele>1421</ele>
        <time>2022-07-17T07:02:20Z</time>
      </trkpt>
      <trkpt lat="45.95178" lon="6.76491">
        <ele>1421</ele>
        <time>2022-07-17T07:02:29Z</time>
      </trkpt>
      <trkpt lat="45.95176" lon="6.76484">
        <ele>1421</ele>
        <time>2022-07-17T07:02:33Z</time>
      </trkpt>
      <trkpt lat="45.95173" lon="6.76479">
        <ele>1421</ele>
        <time>2022-07-17T07:02:38Z</time>
      </trkpt>
      <trkpt lat="45.95169" lon="6.76474">
        <ele>1421</ele>
        <time>2022-07-17T07:02:43Z</time>
      </trkpt>
      <trkpt lat="45.95164" lon="6.76472">
        <ele>1422</ele>
        <time>2022-07-17T07:02:47Z</time>
      </trkpt>
      <trkpt lat="45.9516" lon="6.76467">
        <ele>1422</ele>
        <time>2022-07-17T07:02:52Z</time>
      </trkpt>
      <trkpt lat="45.95156" lon="6.7646">
        <ele>1422</ele>
        <time>2022-07-17T07:02:55Z</time>
      </trkpt>
      <trkpt lat="45.95153" lon="6.76446">
        <ele>1422</ele>
        <time>2022-07-17T07:03:04Z</time>
      </trkpt>
      <trkpt lat="45.9515" lon="6.76441">
        <ele>1422</ele>
        <time>2022-07-17T07:03:08Z</time>
      </trkpt>
      <trkpt lat="45.95148" lon="6.76433">
        <ele>1422</ele>
        <time>2022-07-17T07:03:13Z</time>
      </trkpt>
      <trkpt lat="45.95144" lon="6.76428">
        <ele>1422</ele>
        <time>2022-07-17T07:03:16Z</time>
      </trkpt>
      <trkpt lat="45.9514" lon="6.76405">
        <ele>1421</ele>
        <time>2022-07-17T07:03:32Z</time>
      </trkpt>
      <trkpt lat="45.95134" lon="6.76395">
        <ele>1420</ele>
        <time>2022-07-17T07:03:39Z</time>
      </trkpt>
      <trkpt lat="45.95131" lon="6.76384">
        <ele>1420</ele>
        <time>2022-07-17T07:03:48Z</time>
      </trkpt>
      <trkpt lat="45.95127" lon="6.76377">
        <ele>1420</ele>
        <time>2022-07-17T07:03:52Z</time>
      </trkpt>
      <trkpt lat="45.95124" lon="6.76362">
        <ele>1420</ele>
        <time>2022-07-17T07:04:01Z</time>
      </trkpt>
      <trkpt lat="45.95121" lon="6.76356">
        <ele>1419</ele>
        <time>2022-07-17T07:04:07Z</time>
      </trkpt>
      <trkpt lat="45.95112" lon="6.76349">
        <ele>1418</ele>
        <time>2022-07-17T07:04:15Z</time>
      </trkpt>
      <trkpt lat="45.95109" lon="6.76344">
        <ele>1417</ele>
        <time>2022-07-17T07:04:19Z</time>
      </trkpt>
      <trkpt lat="45.95105" lon="6.7634">
        <ele>1417</ele>
        <time>2022-07-17T07:04:23Z</time>
      </trkpt>
      <trkpt lat="45.95101" lon="6.76331">
        <ele>1416</ele>
        <time>2022-07-17T07:04:31Z</time>
      </trkpt>
      <trkpt lat="45.95097" lon="6.76326">
        <ele>1415</ele>
        <time>2022-07-17T07:04:34Z</time>
      </trkpt>
      <trkpt lat="45.95094" lon="6.7632">
        <ele>1415</ele>
        <time>2022-07-17T07:04:39Z</time>
      </trkpt>
      <trkpt lat="45.95091" lon="6.76313">
        <ele>1414</ele>
        <time>2022-07-17T07:04:57Z</time>
      </trkpt>
      <trkpt lat="45.95086" lon="6.76291">
        <ele>1410</ele>
        <time>2022-07-17T07:05:18Z</time>
      </trkpt>
      <trkpt lat="45.95087" lon="6.76283">
        <ele>1408</ele>
        <time>2022-07-17T07:05:24Z</time>
      </trkpt>
      <trkpt lat="45.95073" lon="6.76247">
        <ele>1402</ele>
        <time>2022-07-17T07:05:53Z</time>
      </trkpt>
      <trkpt lat="45.95071" lon="6.76238">
        <ele>1402</ele>
        <time>2022-07-17T07:05:59Z</time>
      </trkpt>
      <trkpt lat="45.95066" lon="6.76228">
        <ele>1401</ele>
        <time>2022-07-17T07:06:06Z</time>
      </trkpt>
      <trkpt lat="45.95057" lon="6.76216">
        <ele>1399</ele>
        <time>2022-07-17T07:06:18Z</time>
      </trkpt>
      <trkpt lat="45.95049" lon="6.76211">
        <ele>1398</ele>
        <time>2022-07-17T07:06:23Z</time>
      </trkpt>
      <trkpt lat="45.95043" lon="6.76215">
        <ele>1396</ele>
        <time>2022-07-17T07:06:31Z</time>
      </trkpt>
      <trkpt lat="45.95036" lon="6.7623">
        <ele>1393</ele>
        <time>2022-07-17T07:06:48Z</time>
      </trkpt>
      <trkpt lat="45.95033" lon="6.76239">
        <ele>1392</ele>
        <time>2022-07-17T07:06:52Z</time>
      </trkpt>
      <trkpt lat="45.95035" lon="6.76248">
        <ele>1392</ele>
        <time>2022-07-17T07:06:56Z</time>
      </trkpt>
      <trkpt lat="45.95028" lon="6.76253">
        <ele>1391</ele>
        <time>2022-07-17T07:07:01Z</time>
      </trkpt>
      <trkpt lat="45.9503" lon="6.76263">
        <ele>1388</ele>
        <time>2022-07-17T07:07:13Z</time>
      </trkpt>
      <trkpt lat="45.95031" lon="6.76241">
        <ele>1383</ele>
        <time>2022-07-17T07:07:43Z</time>
      </trkpt>
      <trkpt lat="45.95026" lon="6.76231">
        <ele>1383</ele>
        <time>2022-07-17T07:07:49Z</time>
      </trkpt>
      <trkpt lat="45.95018" lon="6.76226">
        <ele>1382</ele>
        <time>2022-07-17T07:07:54Z</time>
      </trkpt>
      <trkpt lat="45.94991" lon="6.7619">
        <ele>1375</ele>
        <time>2022-07-17T07:08:30Z</time>
      </trkpt>
      <trkpt lat="45.94984" lon="6.76188">
        <ele>1374</ele>
        <time>2022-07-17T07:08:37Z</time>
      </trkpt>
      <trkpt lat="45.94981" lon="6.76195">
        <ele>1374</ele>
        <time>2022-07-17T07:08:40Z</time>
      </trkpt>
      <trkpt lat="45.94975" lon="6.76196">
        <ele>1373</ele>
        <time>2022-07-17T07:08:49Z</time>
      </trkpt>
      <trkpt lat="45.9497" lon="6.76196">
        <ele>1370</ele>
        <time>2022-07-17T07:09:01Z</time>
      </trkpt>
      <trkpt lat="45.9496" lon="6.7618">
        <ele>1368</ele>
        <time>2022-07-17T07:09:16Z</time>
      </trkpt>
      <trkpt lat="45.94959" lon="6.76168">
        <ele>1366</ele>
        <time>2022-07-17T07:09:27Z</time>
      </trkpt>
      <trkpt lat="45.94956" lon="6.76163">
        <ele>1365</ele>
        <time>2022-07-17T07:09:30Z</time>
      </trkpt>
      <trkpt lat="45.94955" lon="6.76156">
        <ele>1365</ele>
        <time>2022-07-17T07:09:34Z</time>
      </trkpt>
      <trkpt lat="45.94955" lon="6.76148">
        <ele>1364</ele>
        <time>2022-07-17T07:09:39Z</time>
      </trkpt>
      <trkpt lat="45.94951" lon="6.76141">
        <ele>1363</ele>
        <time>2022-07-17T07:09:46Z</time>
      </trkpt>
      <trkpt lat="45.9495" lon="6.76134">
        <ele>1362</ele>
        <time>2022-07-17T07:09:51Z</time>
      </trkpt>
      <trkpt lat="45.94953" lon="6.76122">
        <ele>1360</ele>
        <time>2022-07-17T07:10:01Z</time>
      </trkpt>
      <trkpt lat="45.94952" lon="6.76106">
        <ele>1357</ele>
        <time>2022-07-17T07:10:14Z</time>
      </trkpt>
      <trkpt lat="45.94945" lon="6.76096">
        <ele>1357</ele>
        <time>2022-07-17T07:10:21Z</time>
      </trkpt>
      <trkpt lat="45.94942" lon="6.76088">
        <ele>1356</ele>
        <time>2022-07-17T07:10:26Z</time>
      </trkpt>
      <trkpt lat="45.94946" lon="6.76082">
        <ele>1355</ele>
        <time>2022-07-17T07:10:31Z</time>
      </trkpt>
      <trkpt lat="45.94958" lon="6.76067">
        <ele>1352</ele>
        <time>2022-07-17T07:10:52Z</time>
      </trkpt>
      <trkpt lat="45.94963" lon="6.76066">
        <ele>1351</ele>
        <time>2022-07-17T07:10:57Z</time>
      </trkpt>
      <trkpt lat="45.94965" lon="6.76057">
        <ele>1350</ele>
        <time>2022-07-17T07:11:02Z</time>
      </trkpt>
      <trkpt lat="45.94966" lon="6.76048">
        <ele>1349</ele>
        <time>2022-07-17T07:11:06Z</time>
      </trkpt>
      <trkpt lat="45.94968" lon="6.76042">
        <ele>1348</ele>
        <time>2022-07-17T07:11:11Z</time>
      </trkpt>
      <trkpt lat="45.94969" lon="6.76032">
        <ele>1346</ele>
        <time>2022-07-17T07:11:20Z</time>
      </trkpt>
      <trkpt lat="45.94966" lon="6.76027">
        <ele>1345</ele>
        <time>2022-07-17T07:11:23Z</time>
      </trkpt>
      <trkpt lat="45.94962" lon="6.76024">
        <ele>1345</ele>
        <time>2022-07-17T07:11:27Z</time>
      </trkpt>
      <trkpt lat="45.94946" lon="6.76024">
        <ele>1342</ele>
        <time>2022-07-17T07:11:42Z</time>
      </trkpt>
      <trkpt lat="45.94941" lon="6.76019">
        <ele>1340</ele>
        <time>2022-07-17T07:11:51Z</time>
      </trkpt>
      <trkpt lat="45.94937" lon="6.76015">
        <ele>1338</ele>
        <time>2022-07-17T07:11:59Z</time>
      </trkpt>
      <trkpt lat="45.94932" lon="6.76006">
        <ele>1337</ele>
        <time>2022-07-17T07:12:11Z</time>
      </trkpt>
      <trkpt lat="45.94931" lon="6.76">
        <ele>1336</ele>
        <time>2022-07-17T07:12:16Z</time>
      </trkpt>
      <trkpt lat="45.94927" lon="6.75997">
        <ele>1335</ele>
        <time>2022-07-17T07:12:19Z</time>
      </trkpt>
      <trkpt lat="45.94944" lon="6.75995">
        <ele>1330</ele>
        <time>2022-07-17T07:12:47Z</time>
      </trkpt>
      <trkpt lat="45.94952" lon="6.75988">
        <ele>1328</ele>
        <time>2022-07-17T07:12:59Z</time>
      </trkpt>
      <trkpt lat="45.94965" lon="6.75986">
        <ele>1328</ele>
        <time>2022-07-17T07:13:06Z</time>
      </trkpt>
      <trkpt lat="45.94968" lon="6.75979">
        <ele>1327</ele>
        <time>2022-07-17T07:13:09Z</time>
      </trkpt>
      <trkpt lat="45.94971" lon="6.75973">
        <ele>1327</ele>
        <time>2022-07-17T07:13:12Z</time>
      </trkpt>
      <trkpt lat="45.94973" lon="6.75959">
        <ele>1328</ele>
        <time>2022-07-17T07:13:21Z</time>
      </trkpt>
      <trkpt lat="45.94977" lon="6.75954">
        <ele>1328</ele>
        <time>2022-07-17T07:13:26Z</time>
      </trkpt>
      <trkpt lat="45.94981" lon="6.7594">
        <ele>1328</ele>
        <time>2022-07-17T07:13:35Z</time>
      </trkpt>
      <trkpt lat="45.94995" lon="6.75928">
        <ele>1327</ele>
        <time>2022-07-17T07:13:48Z</time>
      </trkpt>
      <trkpt lat="45.94993" lon="6.75919">
        <ele>1327</ele>
        <time>2022-07-17T07:13:52Z</time>
      </trkpt>
      <trkpt lat="45.94993" lon="6.75911">
        <ele>1326</ele>
        <time>2022-07-17T07:13:56Z</time>
      </trkpt>
      <trkpt lat="45.94995" lon="6.75904">
        <ele>1326</ele>
        <time>2022-07-17T07:14:01Z</time>
      </trkpt>
      <trkpt lat="45.94999" lon="6.75897">
        <ele>1326</ele>
        <time>2022-07-17T07:14:07Z</time>
      </trkpt>
      <trkpt lat="45.95003" lon="6.75882">
        <ele>1325</ele>
        <time>2022-07-17T07:14:15Z</time>
      </trkpt>
      <trkpt lat="45.95003" lon="6.75875">
        <ele>1325</ele>
        <time>2022-07-17T07:14:19Z</time>
      </trkpt>
      <trkpt lat="45.95" lon="6.75867">
        <ele>1324</ele>
        <time>2022-07-17T07:14:23Z</time>
      </trkpt>
      <trkpt lat="45.95" lon="6.7586">
        <ele>1324</ele>
        <time>2022-07-17T07:14:27Z</time>
      </trkpt>
      <trkpt lat="45.95005" lon="6.7585">
        <ele>1322</ele>
        <time>2022-07-17T07:14:38Z</time>
      </trkpt>
      <trkpt lat="45.95016" lon="6.7584">
        <ele>1320</ele>
        <time>2022-07-17T07:14:55Z</time>
      </trkpt>
      <trkpt lat="45.95019" lon="6.75833">
        <ele>1319</ele>
        <time>2022-07-17T07:14:59Z</time>
      </trkpt>
      <trkpt lat="45.95019" lon="6.75825">
        <ele>1319</ele>
        <time>2022-07-17T07:15:03Z</time>
      </trkpt>
      <trkpt lat="45.95026" lon="6.75812">
        <ele>1317</ele>
        <time>2022-07-17T07:15:15Z</time>
      </trkpt>
      <trkpt lat="45.95025" lon="6.75803">
        <ele>1316</ele>
        <time>2022-07-17T07:15:19Z</time>
      </trkpt>
      <trkpt lat="45.95025" lon="6.75794">
        <ele>1315</ele>
        <time>2022-07-17T07:15:24Z</time>
      </trkpt>
      <trkpt lat="45.95029" lon="6.75787">
        <ele>1314</ele>
        <time>2022-07-17T07:15:31Z</time>
      </trkpt>
      <trkpt lat="45.9503" lon="6.7578">
        <ele>1313</ele>
        <time>2022-07-17T07:15:39Z</time>
      </trkpt>
      <trkpt lat="45.95026" lon="6.75768">
        <ele>1311</ele>
        <time>2022-07-17T07:15:50Z</time>
      </trkpt>
      <trkpt lat="45.95025" lon="6.7576">
        <ele>1311</ele>
        <time>2022-07-17T07:15:54Z</time>
      </trkpt>
      <trkpt lat="45.95019" lon="6.75754">
        <ele>1311</ele>
        <time>2022-07-17T07:16:01Z</time>
      </trkpt>
      <trkpt lat="45.95015" lon="6.75719">
        <ele>1310</ele>
        <time>2022-07-17T07:16:22Z</time>
      </trkpt>
      <trkpt lat="45.95012" lon="6.75714">
        <ele>1310</ele>
        <time>2022-07-17T07:16:27Z</time>
      </trkpt>
      <trkpt lat="45.9501" lon="6.75702">
        <ele>1329</ele>
        <time>2022-07-17T07:16:43Z</time>
      </trkpt>
      <trkpt lat="45.94875" lon="6.7456">
        <ele>1340</ele>
        <time>2022-07-17T07:36:28Z</time>
      </trkpt>
      <trkpt lat="45.94876" lon="6.74558">
        <ele>1329</ele>
        <time>2022-07-17T07:36:29Z</time>
      </trkpt>
      <trkpt lat="45.94865" lon="6.74537">
        <ele>1329</ele>
        <time>2022-07-17T07:36:33Z</time>
      </trkpt>
      <trkpt lat="45.94867" lon="6.74539">
        <ele>1330</ele>
        <time>2022-07-17T07:36:35Z</time>
      </trkpt>
      <trkpt lat="45.94872" lon="6.74538">
        <ele>1330</ele>
        <time>2022-07-17T07:36:43Z</time>
      </trkpt>
    </trkseg>
  </trk>
  <rte>
    <name><![CDATA[4 avr. 2019 à 23:11:12]]></name>
    <cmt><![CDATA[4 avr. 2019 à 23:11:12]]></cmt>
    <desc><![CDATA[{DC1}Heure de fin	: 
Durée totale	: 0h00:00
Moyenne globale	: -
Pente moyenne	: 0.00 %
Aire incluse	: 7.4932 ha
Détails par segments
distance  | durée    | vit.moy. | vit.max. | déniv. + | déniv -
   km     | hh:mn:ss |   km/h   |   km/h   |    m     |    m
     0.81 | 00:00:00 |      0.0 |      0.0 |        0 |        0{DC2}]]></desc>
      <rtept lat="45.60077" lon="6.18221">
        <ele>1608.6</ele>
      </rtept>
      <rtept lat="45.59468" lon="6.1822">
        <ele>1760.9</ele>
      </rtept>
      <rtept lat="45.59468" lon="6.1822">
        <ele>1760.9</ele>
      </rtept>
    </rte>
  <rte>
    <name><![CDATA[10 févr. 2019 à 15:16:12]]></name>
    <cmt><![CDATA[10 févr. 2019 à 15:16:12]]></cmt>
    <desc><![CDATA[{DC1}Heure de fin	: 00:09:21
Durée totale	: -17690439h43:48
Moyenne globale	: -
Pente moyenne	: 7.00 %
Aire incluse	: 221.0936 ha
Détails par segments
distance  | durée    | vit.moy. | vit.max. | déniv. + | déniv -
   km     | hh:mn:ss |   km/h   |   km/h   |    m     |    m
     7.48 | 00:00:00 |      0.0 |      0.0 |        0 |        0{DC2}]]></desc>
      <rtept lat="45.55203" lon="5.93805">
        <ele>376</ele>
      </rtept>
      <rtept lat="45.55177" lon="5.93873">
        <ele>369</ele>
      </rtept>
      <rtept lat="45.55176" lon="5.93942">
        <ele>367</ele>
      </rtept>
      <rtept lat="45.55105" lon="5.93942">
        <ele>367</ele>
      </rtept>
      <rtept lat="45.54993" lon="5.93908">
        <ele>371</ele>
      </rtept>
      <rtept lat="45.54929" lon="5.94099">
        <ele>370</ele>
      </rtept>
      <rtept lat="45.54908" lon="5.94204">
        <ele>367</ele>
      </rtept>
      <rtept lat="45.54991" lon="5.94287">
        <ele>365</ele>
      </rtept>
      <rtept lat="45.5506" lon="5.94384">
        <ele>361</ele>
      </rtept>
      <rtept lat="45.55147" lon="5.94384">
        <ele>357</ele>
      </rtept>
      <rtept lat="45.55129" lon="5.94607">
        <ele>358</ele>
      </rtept>
      <rtept lat="45.55029" lon="5.94809">
        <ele>355</ele>
      </rtept>
      <rtept lat="45.54884" lon="5.94886">
        <ele>346</ele>
      </rtept>
      <rtept lat="45.5477" lon="5.94931">
        <ele>342</ele>
      </rtept>
      <rtept lat="45.5468" lon="5.95004">
        <ele>339</ele>
      </rtept>
      <rtept lat="45.54596" lon="5.95133">
        <ele>340</ele>
      </rtept>
      <rtept lat="45.54446" lon="5.95195">
        <ele>343</ele>
      </rtept>
      <rtept lat="45.543" lon="5.95262">
        <ele>344</ele>
      </rtept>
      <rtept lat="45.54156" lon="5.95212">
        <ele>337</ele>
      </rtept>
      <rtept lat="45.54041" lon="5.95204">
        <ele>338</ele>
      </rtept>
      <rtept lat="45.53917" lon="5.95141">
        <ele>343</ele>
      </rtept>
      <rtept lat="45.53844" lon="5.95135">
        <ele>347</ele>
      </rtept>
      <rtept lat="45.53765" lon="5.9503">
        <ele>349</ele>
      </rtept>
      <rtept lat="45.5381" lon="5.94993">
        <ele>352</ele>
      </rtept>
      <rtept lat="45.53781" lon="5.94901">
        <ele>358</ele>
      </rtept>
      <rtept lat="45.53711" lon="5.94845">
        <ele>365</ele>
      </rtept>
      <rtept lat="45.53702" lon="5.94764">
        <ele>369</ele>
      </rtept>
      <rtept lat="45.53817" lon="5.94807">
        <ele>376</ele>
      </rtept>
      <rtept lat="45.53865" lon="5.94633">
        <ele>389</ele>
      </rtept>
      <rtept lat="45.53778" lon="5.94491">
        <ele>408</ele>
      </rtept>
      <rtept lat="45.53757" lon="5.94371">
        <ele>425</ele>
      </rtept>
      <rtept lat="45.53775" lon="5.94279">
        <ele>434</ele>
      </rtept>
      <rtept lat="45.53726" lon="5.94227">
        <ele>442</ele>
      </rtept>
      <rtept lat="45.53572" lon="5.94146">
        <ele>468</ele>
      </rtept>
      <rtept lat="45.53664" lon="5.94039">
        <ele>483</ele>
      </rtept>
      <rtept lat="45.53532" lon="5.93983">
        <ele>505</ele>
      </rtept>
      <rtept lat="45.53416" lon="5.93985">
        <ele>516</ele>
      </rtept>
      <rtept lat="45.5355" lon="5.93869">
        <ele>532</ele>
      </rtept>
      <rtept lat="45.5359" lon="5.93845">
        <ele>537</ele>
      </rtept>
      <rtept lat="45.5355" lon="5.93802">
        <ele>544</ele>
      </rtept>
      <rtept lat="45.53724" lon="5.93554">
        <ele>587</ele>
      </rtept>
      <rtept lat="45.53691" lon="5.93339">
        <ele>592</ele>
      </rtept>
      <rtept lat="45.5376" lon="5.93178">
        <ele>575</ele>
      </rtept>
      <rtept lat="45.53843" lon="5.93069">
        <ele>555</ele>
      </rtept>
      <rtept lat="45.53939" lon="5.93157">
        <ele>541</ele>
      </rtept>
      <rtept lat="45.54068" lon="5.93234">
        <ele>522</ele>
      </rtept>
      <rtept lat="45.54219" lon="5.93247">
        <ele>514</ele>
      </rtept>
      <rtept lat="45.54355" lon="5.93232">
        <ele>512</ele>
      </rtept>
      <rtept lat="45.54489" lon="5.9326">
        <ele>508</ele>
      </rtept>
      <rtept lat="45.54636" lon="5.93249">
        <ele>510</ele>
      </rtept>
      <rtept lat="45.54758" lon="5.93249">
        <ele>510</ele>
      </rtept>
      <rtept lat="45.54818" lon="5.93298">
        <ele>507</ele>
      </rtept>
      <rtept lat="45.54796" lon="5.93418">
        <ele>496</ele>
      </rtept>
      <rtept lat="45.5491" lon="5.93433">
        <ele>483</ele>
      </rtept>
      <rtept lat="45.55126" lon="5.9341">
        <ele>463</ele>
      </rtept>
      <rtept lat="45.55256" lon="5.93453">
        <ele>444</ele>
      </rtept>
      <rtept lat="45.55329" lon="5.93558">
        <ele>430</ele>
      </rtept>
      <rtept lat="45.55222" lon="5.93642">
        <ele>415</ele>
      </rtept>
      <rtept lat="45.55195" lon="5.93811">
        <ele>375</ele>
      </rtept>
    </rte>
  <rte>
    <name><![CDATA[10 févr. 2019 à 15:15:48]]></name>
    <cmt><![CDATA[10 févr. 2019 à 15:15:48]]></cmt>
    <desc><![CDATA[{DC1}Heure de fin	: 00:09:21
Durée totale	: -17690439h44:12
Moyenne globale	: -
Pente moyenne	: nan %
Aire incluse	: 0.0000 ha
Détails par segments
distance  | durée    | vit.moy. | vit.max. | déniv. + | déniv -
   km     | hh:mn:ss |   km/h   |   km/h   |    m     |    m
     0.00 | 00:00:00 |      0.0 |      0.0 |        0 |        0{DC2}]]></desc>
      <rtept lat="45.5175" lon="5.93483">
        <ele>732.3</ele>
      </rtept>
    </rte>
  <rte>
    <name><![CDATA[10 févr. 2019 à 15:06:08]]></name>
    <cmt><![CDATA[10 févr. 2019 à 15:06:08]]></cmt>
    <desc><![CDATA[{DC1}Heure de fin	: 
Durée totale	: 0h00:00
Moyenne globale	: -
Pente moyenne	: 8.03 %
Aire incluse	: 204.0794 ha
Détails par segments
distance  | durée    | vit.moy. | vit.max. | déniv. + | déniv -
   km     | hh:mn:ss |   km/h   |   km/h   |    m     |    m
    12.88 | 00:00:00 |      0.0 |      0.0 |        0 |        0{DC2}]]></desc>
      <rtept lat="45.5509" lon="5.9394">
        <ele>368</ele>
      </rtept>
      <rtept lat="45.55217" lon="5.93791">
        <ele>377</ele>
      </rtept>
    </rte>
  <rte>
    <name><![CDATA[10 févr. 2019 à 14:22:06]]></name>
    <cmt><![CDATA[10 févr. 2019 à 14:22:06]]></cmt>
    <desc><![CDATA[{DC1}Heure de fin	: 00:09:21
Durée totale	: -17690438h37:54
Moyenne globale	: -
Pente moyenne	: 5.62 %
Aire incluse	: 5.7967 ha
Détails par segments
distance  | durée    | vit.moy. | vit.max. | déniv. + | déniv -
   km     | hh:mn:ss |   km/h   |   km/h   |    m     |    m
     3.30 | 00:00:00 |      0.0 |      0.0 |        0 |        0{DC2}]]></desc>
      <rtept lat="45.55169" lon="5.93089">
        <ele>415</ele>
      </rtept>
      <rtept lat="45.5518" lon="5.93905">
        <ele>366</ele>
      </rtept>
    </rte>
  <rte>
    <name><![CDATA[10 févr. 2019 à 09:50:45]]></name>
    <cmt><![CDATA[10 févr. 2019 à 09:50:45]]></cmt>
    <desc><![CDATA[{DC1}Heure de fin	: 00:09:21
Durée totale	: -17690433h09:14
Moyenne globale	: -
Pente moyenne	: 0.00 %
Aire incluse	: 50.7119 ha
Détails par segments
distance  | durée    | vit.moy. | vit.max. | déniv. + | déniv -
   km     | hh:mn:ss |   km/h   |   km/h   |    m     |    m
     4.33 | 00:00:00 |      0.0 |      0.0 |        0 |        0{DC2}]]></desc>
      <rtept lat="45.5503" lon="5.93918">
        <ele>373.6</ele>
      </rtept>
      <rtept lat="45.55191" lon="5.93893">
        <ele>366.7</ele>
      </rtept>
    </rte>
  <rte>
    <name><![CDATA[10 févr. 2019 à 09:07:08]]></name>
    <cmt><![CDATA[10 févr. 2019 à 09:07:08]]></cmt>
    <desc><![CDATA[{DC1}Heure de fin	: 00:09:21
Durée totale	: -17690433h52:52
Moyenne globale	: -
Pente moyenne	: nan %
Aire incluse	: 0.0000 ha
Détails par segments
distance  | durée    | vit.moy. | vit.max. | déniv. + | déniv -
   km     | hh:mn:ss |   km/h   |   km/h   |    m     |    m
     0.00 | 00:00:00 |      0.0 |      0.0 |        0 |        0{DC2}]]></desc>
      <rtept lat="45.55102" lon="5.93919">
        <ele>370.1</ele>
      </rtept>
    </rte>
  <rte>
    <name><![CDATA[10 févr. 2019 à 09:02:25]]></name>
    <cmt><![CDATA[10 févr. 2019 à 09:02:25]]></cmt>
    <desc><![CDATA[{DC1}Heure de fin	: 00:09:21
Durée totale	: -17690433h57:35
Moyenne globale	: -
Pente moyenne	: nan %
Aire incluse	: 0.0000 ha
Détails par segments
distance  | durée    | vit.moy. | vit.max. | déniv. + | déniv -
   km     | hh:mn:ss |   km/h   |   km/h   |    m     |    m
     0.00 | 00:00:00 |      0.0 |      0.0 |        0 |        0{DC2}]]></desc>
      <rtept lat="45.55207" lon="5.93813">
        <ele>375.2</ele>
      </rtept>
    </rte>
  <rte>
    <name><![CDATA[10 févr. 2019 à 09:00:27]]></name>
    <cmt><![CDATA[10 févr. 2019 à 09:00:27]]></cmt>
    <desc><![CDATA[{DC1}Heure de fin	: 00:09:21
Durée totale	: -17690433h59:32
Moyenne globale	: -
Pente moyenne	: nan %
Aire incluse	: 0.0000 ha
Détails par segments
distance  | durée    | vit.moy. | vit.max. | déniv. + | déniv -
   km     | hh:mn:ss |   km/h   |   km/h   |    m     |    m
     0.00 | 00:00:00 |      0.0 |      0.0 |        0 |        0{DC2}]]></desc>
      <rtept lat="45.55244" lon="5.93858">
        <ele>366.6</ele>
      </rtept>
    </rte>
</gpx>